<?xml version="1.0" encoding="UTF-8" standalone="no" ?>
<gpx xmlns="http://www.topografix.com/GPX/1/1" xmlns:xsi="http://www.w3.org/2001/XMLSchema-instance" xsi:schemaLocation="http://www.topografix.com/GPX/1/1 http://www.topografix.com/GPX/1/1/gpx.xsd" version="1.1" creator="VisuGPX - https://www.visugpx.com">
  <metadata>
    <name>Le Teil - Montagut variante n°1</name>
    <desc><![CDATA[[b]circuit VTT au départ de Mélas[/b]
passages remarquables : la ficelle bleue au Mont Faucon(joli single slalomant entre les chênes) - la descente sur le lac du Pélican (V3) - La descente de Montagut (V2 )
]]></desc>
  </metadata>
  <trk>
    <name><![CDATA[VTT montaigu 26 sept 09]]></name>
    <trkseg>
      <trkpt lat="44.54155" lon="4.67678">
        <ele>89</ele>
        <time>2009-09-26T09:34:09Z</time>
      </trkpt>
      <trkpt lat="44.54139" lon="4.67692">
        <ele>89</ele>
        <time>2009-09-26T09:34:25Z</time>
      </trkpt>
      <trkpt lat="44.5414" lon="4.67682">
        <ele>90</ele>
        <time>2009-09-26T09:34:45Z</time>
      </trkpt>
      <trkpt lat="44.54139" lon="4.67681">
        <ele>90</ele>
        <time>2009-09-26T09:34:47Z</time>
      </trkpt>
      <trkpt lat="44.54134" lon="4.67676">
        <ele>93</ele>
        <time>2009-09-26T09:34:55Z</time>
      </trkpt>
      <trkpt lat="44.54135" lon="4.67675">
        <ele>97</ele>
        <time>2009-09-26T09:35:04Z</time>
      </trkpt>
      <trkpt lat="44.54136" lon="4.6767">
        <ele>100</ele>
        <time>2009-09-26T09:35:22Z</time>
      </trkpt>
      <trkpt lat="44.54136" lon="4.6767">
        <ele>102</ele>
        <time>2009-09-26T09:35:50Z</time>
      </trkpt>
      <trkpt lat="44.54141" lon="4.67712">
        <ele>100</ele>
        <time>2009-09-26T09:36:02Z</time>
      </trkpt>
      <trkpt lat="44.54173" lon="4.67733">
        <ele>96</ele>
        <time>2009-09-26T09:36:08Z</time>
      </trkpt>
      <trkpt lat="44.54188" lon="4.67744">
        <ele>95</ele>
        <time>2009-09-26T09:36:10Z</time>
      </trkpt>
      <trkpt lat="44.54209" lon="4.67752">
        <ele>93</ele>
        <time>2009-09-26T09:36:15Z</time>
      </trkpt>
      <trkpt lat="44.54211" lon="4.67743">
        <ele>93</ele>
        <time>2009-09-26T09:36:19Z</time>
      </trkpt>
      <trkpt lat="44.54206" lon="4.67675">
        <ele>94</ele>
        <time>2009-09-26T09:36:35Z</time>
      </trkpt>
      <trkpt lat="44.542" lon="4.67606">
        <ele>94</ele>
        <time>2009-09-26T09:36:50Z</time>
      </trkpt>
      <trkpt lat="44.54182" lon="4.67547">
        <ele>95</ele>
        <time>2009-09-26T09:37:04Z</time>
      </trkpt>
      <trkpt lat="44.5415" lon="4.67496">
        <ele>96</ele>
        <time>2009-09-26T09:37:19Z</time>
      </trkpt>
      <trkpt lat="44.54125" lon="4.67441">
        <ele>97</ele>
        <time>2009-09-26T09:37:33Z</time>
      </trkpt>
      <trkpt lat="44.54102" lon="4.67388">
        <ele>97</ele>
        <time>2009-09-26T09:37:49Z</time>
      </trkpt>
      <trkpt lat="44.54079" lon="4.6734">
        <ele>99</ele>
        <time>2009-09-26T09:38:04Z</time>
      </trkpt>
      <trkpt lat="44.54055" lon="4.6731">
        <ele>101</ele>
        <time>2009-09-26T09:38:18Z</time>
      </trkpt>
      <trkpt lat="44.54038" lon="4.67276">
        <ele>103</ele>
        <time>2009-09-26T09:38:31Z</time>
      </trkpt>
      <trkpt lat="44.54022" lon="4.67235">
        <ele>105</ele>
        <time>2009-09-26T09:38:46Z</time>
      </trkpt>
      <trkpt lat="44.5401" lon="4.672">
        <ele>108</ele>
        <time>2009-09-26T09:39:01Z</time>
      </trkpt>
      <trkpt lat="44.54" lon="4.67171">
        <ele>110</ele>
        <time>2009-09-26T09:39:15Z</time>
      </trkpt>
      <trkpt lat="44.53992" lon="4.67146">
        <ele>113</ele>
        <time>2009-09-26T09:39:29Z</time>
      </trkpt>
      <trkpt lat="44.53988" lon="4.67139">
        <ele>113</ele>
        <time>2009-09-26T09:39:33Z</time>
      </trkpt>
      <trkpt lat="44.53988" lon="4.67139">
        <ele>114</ele>
        <time>2009-09-26T09:39:35Z</time>
      </trkpt>
      <trkpt lat="44.53982" lon="4.67131">
        <ele>115</ele>
        <time>2009-09-26T09:39:39Z</time>
      </trkpt>
      <trkpt lat="44.53975" lon="4.67123">
        <ele>116</ele>
        <time>2009-09-26T09:39:46Z</time>
      </trkpt>
      <trkpt lat="44.53973" lon="4.67119">
        <ele>116</ele>
        <time>2009-09-26T09:39:50Z</time>
      </trkpt>
      <trkpt lat="44.53963" lon="4.67104">
        <ele>119</ele>
        <time>2009-09-26T09:40:04Z</time>
      </trkpt>
      <trkpt lat="44.53945" lon="4.6708">
        <ele>122</ele>
        <time>2009-09-26T09:40:17Z</time>
      </trkpt>
      <trkpt lat="44.53932" lon="4.6706">
        <ele>124</ele>
        <time>2009-09-26T09:40:30Z</time>
      </trkpt>
      <trkpt lat="44.53929" lon="4.67056">
        <ele>125</ele>
        <time>2009-09-26T09:40:35Z</time>
      </trkpt>
      <trkpt lat="44.53929" lon="4.67056">
        <ele>125</ele>
        <time>2009-09-26T09:40:37Z</time>
      </trkpt>
      <trkpt lat="44.53925" lon="4.67044">
        <ele>126</ele>
        <time>2009-09-26T09:40:41Z</time>
      </trkpt>
      <trkpt lat="44.53922" lon="4.67036">
        <ele>126</ele>
        <time>2009-09-26T09:40:45Z</time>
      </trkpt>
      <trkpt lat="44.53911" lon="4.67005">
        <ele>128</ele>
        <time>2009-09-26T09:41:00Z</time>
      </trkpt>
      <trkpt lat="44.539" lon="4.66977">
        <ele>129</ele>
        <time>2009-09-26T09:41:12Z</time>
      </trkpt>
      <trkpt lat="44.53893" lon="4.6696">
        <ele>131</ele>
        <time>2009-09-26T09:41:26Z</time>
      </trkpt>
      <trkpt lat="44.53883" lon="4.66936">
        <ele>133</ele>
        <time>2009-09-26T09:41:38Z</time>
      </trkpt>
      <trkpt lat="44.53878" lon="4.66924">
        <ele>134</ele>
        <time>2009-09-26T09:41:44Z</time>
      </trkpt>
      <trkpt lat="44.53873" lon="4.66915">
        <ele>134</ele>
        <time>2009-09-26T09:41:50Z</time>
      </trkpt>
      <trkpt lat="44.5385" lon="4.66899">
        <ele>136</ele>
        <time>2009-09-26T09:42:03Z</time>
      </trkpt>
      <trkpt lat="44.53824" lon="4.66875">
        <ele>139</ele>
        <time>2009-09-26T09:42:19Z</time>
      </trkpt>
      <trkpt lat="44.53807" lon="4.6687">
        <ele>140</ele>
        <time>2009-09-26T09:42:31Z</time>
      </trkpt>
      <trkpt lat="44.53805" lon="4.66869">
        <ele>140</ele>
        <time>2009-09-26T09:42:34Z</time>
      </trkpt>
      <trkpt lat="44.53784" lon="4.66855">
        <ele>141</ele>
        <time>2009-09-26T09:42:47Z</time>
      </trkpt>
      <trkpt lat="44.5378" lon="4.66849">
        <ele>142</ele>
        <time>2009-09-26T09:42:51Z</time>
      </trkpt>
      <trkpt lat="44.53777" lon="4.66845">
        <ele>143</ele>
        <time>2009-09-26T09:42:57Z</time>
      </trkpt>
      <trkpt lat="44.53749" lon="4.66827">
        <ele>144</ele>
        <time>2009-09-26T09:43:10Z</time>
      </trkpt>
      <trkpt lat="44.53724" lon="4.6682">
        <ele>146</ele>
        <time>2009-09-26T09:43:25Z</time>
      </trkpt>
      <trkpt lat="44.53697" lon="4.66804">
        <ele>148</ele>
        <time>2009-09-26T09:43:42Z</time>
      </trkpt>
      <trkpt lat="44.53672" lon="4.66778">
        <ele>151</ele>
        <time>2009-09-26T09:43:59Z</time>
      </trkpt>
      <trkpt lat="44.5365" lon="4.6676">
        <ele>152</ele>
        <time>2009-09-26T09:44:12Z</time>
      </trkpt>
      <trkpt lat="44.53624" lon="4.66753">
        <ele>154</ele>
        <time>2009-09-26T09:44:27Z</time>
      </trkpt>
      <trkpt lat="44.53605" lon="4.66742">
        <ele>155</ele>
        <time>2009-09-26T09:44:40Z</time>
      </trkpt>
      <trkpt lat="44.53589" lon="4.66711">
        <ele>158</ele>
        <time>2009-09-26T09:44:55Z</time>
      </trkpt>
      <trkpt lat="44.53581" lon="4.66684">
        <ele>159</ele>
        <time>2009-09-26T09:45:08Z</time>
      </trkpt>
      <trkpt lat="44.53574" lon="4.66674">
        <ele>160</ele>
        <time>2009-09-26T09:45:15Z</time>
      </trkpt>
      <trkpt lat="44.53553" lon="4.66646">
        <ele>162</ele>
        <time>2009-09-26T09:45:30Z</time>
      </trkpt>
      <trkpt lat="44.53526" lon="4.66624">
        <ele>163</ele>
        <time>2009-09-26T09:45:47Z</time>
      </trkpt>
      <trkpt lat="44.53501" lon="4.66618">
        <ele>164</ele>
        <time>2009-09-26T09:46:01Z</time>
      </trkpt>
      <trkpt lat="44.53477" lon="4.66602">
        <ele>165</ele>
        <time>2009-09-26T09:46:16Z</time>
      </trkpt>
      <trkpt lat="44.5346" lon="4.6657">
        <ele>166</ele>
        <time>2009-09-26T09:46:30Z</time>
      </trkpt>
      <trkpt lat="44.53444" lon="4.66533">
        <ele>167</ele>
        <time>2009-09-26T09:46:45Z</time>
      </trkpt>
      <trkpt lat="44.53412" lon="4.66484">
        <ele>168</ele>
        <time>2009-09-26T09:47:05Z</time>
      </trkpt>
      <trkpt lat="44.53367" lon="4.66443">
        <ele>167</ele>
        <time>2009-09-26T09:47:21Z</time>
      </trkpt>
      <trkpt lat="44.53329" lon="4.66414">
        <ele>166</ele>
        <time>2009-09-26T09:47:32Z</time>
      </trkpt>
      <trkpt lat="44.53299" lon="4.66385">
        <ele>168</ele>
        <time>2009-09-26T09:47:44Z</time>
      </trkpt>
      <trkpt lat="44.5328" lon="4.66374">
        <ele>171</ele>
        <time>2009-09-26T09:47:56Z</time>
      </trkpt>
      <trkpt lat="44.53271" lon="4.66349">
        <ele>174</ele>
        <time>2009-09-26T09:48:11Z</time>
      </trkpt>
      <trkpt lat="44.53264" lon="4.66326">
        <ele>177</ele>
        <time>2009-09-26T09:48:25Z</time>
      </trkpt>
      <trkpt lat="44.53262" lon="4.66317">
        <ele>178</ele>
        <time>2009-09-26T09:48:32Z</time>
      </trkpt>
      <trkpt lat="44.5326" lon="4.66312">
        <ele>179</ele>
        <time>2009-09-26T09:48:35Z</time>
      </trkpt>
      <trkpt lat="44.53256" lon="4.66298">
        <ele>181</ele>
        <time>2009-09-26T09:48:45Z</time>
      </trkpt>
      <trkpt lat="44.53253" lon="4.66283">
        <ele>183</ele>
        <time>2009-09-26T09:48:58Z</time>
      </trkpt>
      <trkpt lat="44.53248" lon="4.6628">
        <ele>185</ele>
        <time>2009-09-26T09:49:12Z</time>
      </trkpt>
      <trkpt lat="44.53248" lon="4.6628">
        <ele>187</ele>
        <time>2009-09-26T09:49:26Z</time>
      </trkpt>
      <trkpt lat="44.53248" lon="4.6628">
        <ele>188</ele>
        <time>2009-09-26T09:49:42Z</time>
      </trkpt>
      <trkpt lat="44.53248" lon="4.6628">
        <ele>189</ele>
        <time>2009-09-26T09:49:57Z</time>
      </trkpt>
      <trkpt lat="44.53208" lon="4.66214">
        <ele>191</ele>
        <time>2009-09-26T09:50:13Z</time>
      </trkpt>
      <trkpt lat="44.53194" lon="4.66189">
        <ele>193</ele>
        <time>2009-09-26T09:50:24Z</time>
      </trkpt>
      <trkpt lat="44.53181" lon="4.66164">
        <ele>197</ele>
        <time>2009-09-26T09:50:37Z</time>
      </trkpt>
      <trkpt lat="44.53159" lon="4.66141">
        <ele>200</ele>
        <time>2009-09-26T09:50:51Z</time>
      </trkpt>
      <trkpt lat="44.53137" lon="4.6613">
        <ele>202</ele>
        <time>2009-09-26T09:51:04Z</time>
      </trkpt>
      <trkpt lat="44.53118" lon="4.66123">
        <ele>204</ele>
        <time>2009-09-26T09:51:18Z</time>
      </trkpt>
      <trkpt lat="44.53101" lon="4.66121">
        <ele>206</ele>
        <time>2009-09-26T09:51:31Z</time>
      </trkpt>
      <trkpt lat="44.53092" lon="4.66116">
        <ele>209</ele>
        <time>2009-09-26T09:51:44Z</time>
      </trkpt>
      <trkpt lat="44.53071" lon="4.66112">
        <ele>212</ele>
        <time>2009-09-26T09:51:57Z</time>
      </trkpt>
      <trkpt lat="44.53058" lon="4.66114">
        <ele>215</ele>
        <time>2009-09-26T09:52:11Z</time>
      </trkpt>
      <trkpt lat="44.53041" lon="4.66115">
        <ele>218</ele>
        <time>2009-09-26T09:52:25Z</time>
      </trkpt>
      <trkpt lat="44.53041" lon="4.66115">
        <ele>219</ele>
        <time>2009-09-26T09:52:32Z</time>
      </trkpt>
      <trkpt lat="44.53024" lon="4.66116">
        <ele>221</ele>
        <time>2009-09-26T09:52:38Z</time>
      </trkpt>
      <trkpt lat="44.5302" lon="4.66116">
        <ele>222</ele>
        <time>2009-09-26T09:52:40Z</time>
      </trkpt>
      <trkpt lat="44.53009" lon="4.66113">
        <ele>226</ele>
        <time>2009-09-26T09:52:53Z</time>
      </trkpt>
      <trkpt lat="44.53009" lon="4.66113">
        <ele>226</ele>
        <time>2009-09-26T09:52:55Z</time>
      </trkpt>
      <trkpt lat="44.53004" lon="4.66111">
        <ele>228</ele>
        <time>2009-09-26T09:53:12Z</time>
      </trkpt>
      <trkpt lat="44.53004" lon="4.66111">
        <ele>231</ele>
        <time>2009-09-26T09:53:28Z</time>
      </trkpt>
      <trkpt lat="44.53004" lon="4.66111">
        <ele>233</ele>
        <time>2009-09-26T09:53:34Z</time>
      </trkpt>
      <trkpt lat="44.52972" lon="4.66091">
        <ele>235</ele>
        <time>2009-09-26T09:53:47Z</time>
      </trkpt>
      <trkpt lat="44.52972" lon="4.66091">
        <ele>238</ele>
        <time>2009-09-26T09:54:05Z</time>
      </trkpt>
      <trkpt lat="44.52972" lon="4.66091">
        <ele>241</ele>
        <time>2009-09-26T09:54:24Z</time>
      </trkpt>
      <trkpt lat="44.52918" lon="4.66079">
        <ele>242</ele>
        <time>2009-09-26T09:54:38Z</time>
      </trkpt>
      <trkpt lat="44.52918" lon="4.66079">
        <ele>240</ele>
        <time>2009-09-26T09:55:19Z</time>
      </trkpt>
      <trkpt lat="44.52918" lon="4.66079">
        <ele>243</ele>
        <time>2009-09-26T09:55:32Z</time>
      </trkpt>
      <trkpt lat="44.52918" lon="4.66079">
        <ele>242</ele>
        <time>2009-09-26T09:56:06Z</time>
      </trkpt>
      <trkpt lat="44.529" lon="4.6607">
        <ele>245</ele>
        <time>2009-09-26T09:56:44Z</time>
      </trkpt>
      <trkpt lat="44.5289" lon="4.66065">
        <ele>247</ele>
        <time>2009-09-26T09:56:55Z</time>
      </trkpt>
      <trkpt lat="44.52865" lon="4.66053">
        <ele>249</ele>
        <time>2009-09-26T09:57:11Z</time>
      </trkpt>
      <trkpt lat="44.52849" lon="4.66045">
        <ele>251</ele>
        <time>2009-09-26T09:57:24Z</time>
      </trkpt>
      <trkpt lat="44.5283" lon="4.66039">
        <ele>252</ele>
        <time>2009-09-26T09:57:37Z</time>
      </trkpt>
      <trkpt lat="44.52819" lon="4.66039">
        <ele>253</ele>
        <time>2009-09-26T09:57:44Z</time>
      </trkpt>
      <trkpt lat="44.52813" lon="4.66039">
        <ele>254</ele>
        <time>2009-09-26T09:57:50Z</time>
      </trkpt>
      <trkpt lat="44.52794" lon="4.66037">
        <ele>255</ele>
        <time>2009-09-26T09:58:05Z</time>
      </trkpt>
      <trkpt lat="44.52794" lon="4.66037">
        <ele>255</ele>
        <time>2009-09-26T09:58:06Z</time>
      </trkpt>
      <trkpt lat="44.52787" lon="4.66035">
        <ele>255</ele>
        <time>2009-09-26T09:58:11Z</time>
      </trkpt>
      <trkpt lat="44.52775" lon="4.66033">
        <ele>257</ele>
        <time>2009-09-26T09:58:22Z</time>
      </trkpt>
      <trkpt lat="44.52766" lon="4.65997">
        <ele>258</ele>
        <time>2009-09-26T09:58:32Z</time>
      </trkpt>
      <trkpt lat="44.52757" lon="4.65989">
        <ele>259</ele>
        <time>2009-09-26T09:58:41Z</time>
      </trkpt>
      <trkpt lat="44.52758" lon="4.65943">
        <ele>259</ele>
        <time>2009-09-26T09:58:50Z</time>
      </trkpt>
      <trkpt lat="44.52763" lon="4.65926">
        <ele>259</ele>
        <time>2009-09-26T09:58:55Z</time>
      </trkpt>
      <trkpt lat="44.52768" lon="4.65903">
        <ele>259</ele>
        <time>2009-09-26T09:59:01Z</time>
      </trkpt>
      <trkpt lat="44.5277" lon="4.65888">
        <ele>259</ele>
        <time>2009-09-26T09:59:05Z</time>
      </trkpt>
      <trkpt lat="44.52761" lon="4.65871">
        <ele>261</ele>
        <time>2009-09-26T09:59:15Z</time>
      </trkpt>
      <trkpt lat="44.52759" lon="4.65859">
        <ele>262</ele>
        <time>2009-09-26T09:59:20Z</time>
      </trkpt>
      <trkpt lat="44.52749" lon="4.65834">
        <ele>262</ele>
        <time>2009-09-26T09:59:31Z</time>
      </trkpt>
      <trkpt lat="44.52745" lon="4.65827">
        <ele>263</ele>
        <time>2009-09-26T09:59:36Z</time>
      </trkpt>
      <trkpt lat="44.52736" lon="4.65818">
        <ele>264</ele>
        <time>2009-09-26T09:59:49Z</time>
      </trkpt>
      <trkpt lat="44.52719" lon="4.65811">
        <ele>266</ele>
        <time>2009-09-26T10:00:01Z</time>
      </trkpt>
      <trkpt lat="44.52713" lon="4.65809">
        <ele>267</ele>
        <time>2009-09-26T10:00:05Z</time>
      </trkpt>
      <trkpt lat="44.52693" lon="4.65805">
        <ele>270</ele>
        <time>2009-09-26T10:00:19Z</time>
      </trkpt>
      <trkpt lat="44.52679" lon="4.65801">
        <ele>272</ele>
        <time>2009-09-26T10:00:30Z</time>
      </trkpt>
      <trkpt lat="44.52661" lon="4.65793">
        <ele>274</ele>
        <time>2009-09-26T10:00:45Z</time>
      </trkpt>
      <trkpt lat="44.52644" lon="4.65786">
        <ele>277</ele>
        <time>2009-09-26T10:01:01Z</time>
      </trkpt>
      <trkpt lat="44.52641" lon="4.65785">
        <ele>277</ele>
        <time>2009-09-26T10:01:03Z</time>
      </trkpt>
      <trkpt lat="44.52637" lon="4.65782">
        <ele>277</ele>
        <time>2009-09-26T10:01:06Z</time>
      </trkpt>
      <trkpt lat="44.52635" lon="4.6578">
        <ele>277</ele>
        <time>2009-09-26T10:01:08Z</time>
      </trkpt>
      <trkpt lat="44.52633" lon="4.65778">
        <ele>278</ele>
        <time>2009-09-26T10:01:10Z</time>
      </trkpt>
      <trkpt lat="44.52616" lon="4.65767">
        <ele>279</ele>
        <time>2009-09-26T10:01:24Z</time>
      </trkpt>
      <trkpt lat="44.52608" lon="4.65765">
        <ele>280</ele>
        <time>2009-09-26T10:01:33Z</time>
      </trkpt>
      <trkpt lat="44.52612" lon="4.65772">
        <ele>280</ele>
        <time>2009-09-26T10:01:47Z</time>
      </trkpt>
      <trkpt lat="44.52627" lon="4.65805">
        <ele>278</ele>
        <time>2009-09-26T10:01:59Z</time>
      </trkpt>
      <trkpt lat="44.52628" lon="4.65808">
        <ele>278</ele>
        <time>2009-09-26T10:02:00Z</time>
      </trkpt>
      <trkpt lat="44.52642" lon="4.65849">
        <ele>277</ele>
        <time>2009-09-26T10:02:11Z</time>
      </trkpt>
      <trkpt lat="44.52649" lon="4.65873">
        <ele>275</ele>
        <time>2009-09-26T10:02:15Z</time>
      </trkpt>
      <trkpt lat="44.52678" lon="4.65912">
        <ele>273</ele>
        <time>2009-09-26T10:02:21Z</time>
      </trkpt>
      <trkpt lat="44.52683" lon="4.65952">
        <ele>268</ele>
        <time>2009-09-26T10:02:26Z</time>
      </trkpt>
      <trkpt lat="44.52682" lon="4.65964">
        <ele>267</ele>
        <time>2009-09-26T10:02:28Z</time>
      </trkpt>
      <trkpt lat="44.52676" lon="4.65965">
        <ele>266</ele>
        <time>2009-09-26T10:02:30Z</time>
      </trkpt>
      <trkpt lat="44.52669" lon="4.65957">
        <ele>267</ele>
        <time>2009-09-26T10:02:38Z</time>
      </trkpt>
      <trkpt lat="44.52664" lon="4.65952">
        <ele>268</ele>
        <time>2009-09-26T10:02:49Z</time>
      </trkpt>
      <trkpt lat="44.52645" lon="4.65934">
        <ele>270</ele>
        <time>2009-09-26T10:03:03Z</time>
      </trkpt>
      <trkpt lat="44.52623" lon="4.65919">
        <ele>271</ele>
        <time>2009-09-26T10:03:16Z</time>
      </trkpt>
      <trkpt lat="44.52621" lon="4.65918">
        <ele>272</ele>
        <time>2009-09-26T10:03:22Z</time>
      </trkpt>
      <trkpt lat="44.52599" lon="4.65937">
        <ele>273</ele>
        <time>2009-09-26T10:03:27Z</time>
      </trkpt>
      <trkpt lat="44.52649" lon="4.65874">
        <ele>274</ele>
        <time>2009-09-26T10:03:34Z</time>
      </trkpt>
      <trkpt lat="44.52649" lon="4.65874">
        <ele>274</ele>
        <time>2009-09-26T10:03:36Z</time>
      </trkpt>
      <trkpt lat="44.52649" lon="4.65874">
        <ele>275</ele>
        <time>2009-09-26T10:03:42Z</time>
      </trkpt>
      <trkpt lat="44.52643" lon="4.65851">
        <ele>277</ele>
        <time>2009-09-26T10:03:51Z</time>
      </trkpt>
      <trkpt lat="44.52641" lon="4.65844">
        <ele>278</ele>
        <time>2009-09-26T10:03:58Z</time>
      </trkpt>
      <trkpt lat="44.52641" lon="4.65844">
        <ele>278</ele>
        <time>2009-09-26T10:04:02Z</time>
      </trkpt>
      <trkpt lat="44.52632" lon="4.65814">
        <ele>279</ele>
        <time>2009-09-26T10:04:11Z</time>
      </trkpt>
      <trkpt lat="44.52632" lon="4.65814">
        <ele>280</ele>
        <time>2009-09-26T10:04:16Z</time>
      </trkpt>
      <trkpt lat="44.52628" lon="4.65805">
        <ele>280</ele>
        <time>2009-09-26T10:04:23Z</time>
      </trkpt>
      <trkpt lat="44.52591" lon="4.65826">
        <ele>280</ele>
        <time>2009-09-26T10:04:31Z</time>
      </trkpt>
      <trkpt lat="44.52584" lon="4.65806">
        <ele>282</ele>
        <time>2009-09-26T10:04:42Z</time>
      </trkpt>
      <trkpt lat="44.52579" lon="4.65794">
        <ele>282</ele>
        <time>2009-09-26T10:04:47Z</time>
      </trkpt>
      <trkpt lat="44.52573" lon="4.65786">
        <ele>283</ele>
        <time>2009-09-26T10:04:51Z</time>
      </trkpt>
      <trkpt lat="44.52566" lon="4.65772">
        <ele>283</ele>
        <time>2009-09-26T10:04:59Z</time>
      </trkpt>
      <trkpt lat="44.52555" lon="4.65768">
        <ele>284</ele>
        <time>2009-09-26T10:05:09Z</time>
      </trkpt>
      <trkpt lat="44.52556" lon="4.65763">
        <ele>284</ele>
        <time>2009-09-26T10:05:13Z</time>
      </trkpt>
      <trkpt lat="44.52556" lon="4.6576">
        <ele>284</ele>
        <time>2009-09-26T10:05:15Z</time>
      </trkpt>
      <trkpt lat="44.52554" lon="4.65749">
        <ele>285</ele>
        <time>2009-09-26T10:05:22Z</time>
      </trkpt>
      <trkpt lat="44.52551" lon="4.65744">
        <ele>285</ele>
        <time>2009-09-26T10:05:27Z</time>
      </trkpt>
      <trkpt lat="44.52546" lon="4.65739">
        <ele>286</ele>
        <time>2009-09-26T10:05:33Z</time>
      </trkpt>
      <trkpt lat="44.52537" lon="4.65725">
        <ele>286</ele>
        <time>2009-09-26T10:05:41Z</time>
      </trkpt>
      <trkpt lat="44.52537" lon="4.65709">
        <ele>287</ele>
        <time>2009-09-26T10:05:50Z</time>
      </trkpt>
      <trkpt lat="44.52527" lon="4.65696">
        <ele>288</ele>
        <time>2009-09-26T10:06:00Z</time>
      </trkpt>
      <trkpt lat="44.52526" lon="4.65691">
        <ele>288</ele>
        <time>2009-09-26T10:06:03Z</time>
      </trkpt>
      <trkpt lat="44.52521" lon="4.65678">
        <ele>289</ele>
        <time>2009-09-26T10:06:10Z</time>
      </trkpt>
      <trkpt lat="44.52519" lon="4.65672">
        <ele>289</ele>
        <time>2009-09-26T10:06:13Z</time>
      </trkpt>
      <trkpt lat="44.52509" lon="4.65664">
        <ele>289</ele>
        <time>2009-09-26T10:06:21Z</time>
      </trkpt>
      <trkpt lat="44.52508" lon="4.65661">
        <ele>290</ele>
        <time>2009-09-26T10:06:23Z</time>
      </trkpt>
      <trkpt lat="44.52507" lon="4.65651">
        <ele>290</ele>
        <time>2009-09-26T10:06:28Z</time>
      </trkpt>
      <trkpt lat="44.525" lon="4.65631">
        <ele>292</ele>
        <time>2009-09-26T10:06:39Z</time>
      </trkpt>
      <trkpt lat="44.52501" lon="4.65623">
        <ele>293</ele>
        <time>2009-09-26T10:06:44Z</time>
      </trkpt>
      <trkpt lat="44.52501" lon="4.65619">
        <ele>293</ele>
        <time>2009-09-26T10:06:46Z</time>
      </trkpt>
      <trkpt lat="44.52499" lon="4.65611">
        <ele>294</ele>
        <time>2009-09-26T10:06:51Z</time>
      </trkpt>
      <trkpt lat="44.52499" lon="4.65607">
        <ele>294</ele>
        <time>2009-09-26T10:06:53Z</time>
      </trkpt>
      <trkpt lat="44.525" lon="4.65595">
        <ele>295</ele>
        <time>2009-09-26T10:06:59Z</time>
      </trkpt>
      <trkpt lat="44.52499" lon="4.65577">
        <ele>296</ele>
        <time>2009-09-26T10:07:15Z</time>
      </trkpt>
      <trkpt lat="44.525" lon="4.65575">
        <ele>296</ele>
        <time>2009-09-26T10:07:17Z</time>
      </trkpt>
      <trkpt lat="44.52499" lon="4.65565">
        <ele>297</ele>
        <time>2009-09-26T10:07:22Z</time>
      </trkpt>
      <trkpt lat="44.52496" lon="4.65546">
        <ele>299</ele>
        <time>2009-09-26T10:07:33Z</time>
      </trkpt>
      <trkpt lat="44.52496" lon="4.65542">
        <ele>299</ele>
        <time>2009-09-26T10:07:35Z</time>
      </trkpt>
      <trkpt lat="44.52497" lon="4.65536">
        <ele>300</ele>
        <time>2009-09-26T10:07:38Z</time>
      </trkpt>
      <trkpt lat="44.52499" lon="4.65531">
        <ele>300</ele>
        <time>2009-09-26T10:07:40Z</time>
      </trkpt>
      <trkpt lat="44.52498" lon="4.65509">
        <ele>302</ele>
        <time>2009-09-26T10:07:52Z</time>
      </trkpt>
      <trkpt lat="44.525" lon="4.65495">
        <ele>302</ele>
        <time>2009-09-26T10:07:59Z</time>
      </trkpt>
      <trkpt lat="44.52499" lon="4.65484">
        <ele>304</ele>
        <time>2009-09-26T10:08:05Z</time>
      </trkpt>
      <trkpt lat="44.52489" lon="4.6547">
        <ele>306</ele>
        <time>2009-09-26T10:08:20Z</time>
      </trkpt>
      <trkpt lat="44.5248" lon="4.65456">
        <ele>307</ele>
        <time>2009-09-26T10:08:34Z</time>
      </trkpt>
      <trkpt lat="44.52478" lon="4.65451">
        <ele>308</ele>
        <time>2009-09-26T10:08:38Z</time>
      </trkpt>
      <trkpt lat="44.52477" lon="4.65443">
        <ele>309</ele>
        <time>2009-09-26T10:08:42Z</time>
      </trkpt>
      <trkpt lat="44.5247" lon="4.65418">
        <ele>311</ele>
        <time>2009-09-26T10:08:56Z</time>
      </trkpt>
      <trkpt lat="44.52467" lon="4.65409">
        <ele>312</ele>
        <time>2009-09-26T10:09:01Z</time>
      </trkpt>
      <trkpt lat="44.52462" lon="4.65395">
        <ele>313</ele>
        <time>2009-09-26T10:09:11Z</time>
      </trkpt>
      <trkpt lat="44.52458" lon="4.65386">
        <ele>313</ele>
        <time>2009-09-26T10:09:17Z</time>
      </trkpt>
      <trkpt lat="44.52454" lon="4.65379">
        <ele>314</ele>
        <time>2009-09-26T10:09:23Z</time>
      </trkpt>
      <trkpt lat="44.52446" lon="4.65363">
        <ele>315</ele>
        <time>2009-09-26T10:09:34Z</time>
      </trkpt>
      <trkpt lat="44.52447" lon="4.65356">
        <ele>315</ele>
        <time>2009-09-26T10:09:39Z</time>
      </trkpt>
      <trkpt lat="44.52448" lon="4.65337">
        <ele>315</ele>
        <time>2009-09-26T10:09:47Z</time>
      </trkpt>
      <trkpt lat="44.52451" lon="4.6532">
        <ele>315</ele>
        <time>2009-09-26T10:09:57Z</time>
      </trkpt>
      <trkpt lat="44.52468" lon="4.65287">
        <ele>314</ele>
        <time>2009-09-26T10:10:08Z</time>
      </trkpt>
      <trkpt lat="44.52481" lon="4.65263">
        <ele>312</ele>
        <time>2009-09-26T10:10:13Z</time>
      </trkpt>
      <trkpt lat="44.52485" lon="4.65254">
        <ele>311</ele>
        <time>2009-09-26T10:10:16Z</time>
      </trkpt>
      <trkpt lat="44.5249" lon="4.65251">
        <ele>311</ele>
        <time>2009-09-26T10:10:18Z</time>
      </trkpt>
      <trkpt lat="44.525" lon="4.65244">
        <ele>309</ele>
        <time>2009-09-26T10:10:30Z</time>
      </trkpt>
      <trkpt lat="44.52521" lon="4.6522">
        <ele>307</ele>
        <time>2009-09-26T10:10:39Z</time>
      </trkpt>
      <trkpt lat="44.52548" lon="4.65209">
        <ele>305</ele>
        <time>2009-09-26T10:10:48Z</time>
      </trkpt>
      <trkpt lat="44.52551" lon="4.65209">
        <ele>305</ele>
        <time>2009-09-26T10:10:49Z</time>
      </trkpt>
      <trkpt lat="44.52568" lon="4.65194">
        <ele>304</ele>
        <time>2009-09-26T10:10:55Z</time>
      </trkpt>
      <trkpt lat="44.526" lon="4.65157">
        <ele>301</ele>
        <time>2009-09-26T10:11:08Z</time>
      </trkpt>
      <trkpt lat="44.52603" lon="4.65156">
        <ele>301</ele>
        <time>2009-09-26T10:11:09Z</time>
      </trkpt>
      <trkpt lat="44.52615" lon="4.65141">
        <ele>300</ele>
        <time>2009-09-26T10:11:15Z</time>
      </trkpt>
      <trkpt lat="44.52635" lon="4.65135">
        <ele>300</ele>
        <time>2009-09-26T10:11:21Z</time>
      </trkpt>
      <trkpt lat="44.52647" lon="4.65128">
        <ele>299</ele>
        <time>2009-09-26T10:11:35Z</time>
      </trkpt>
      <trkpt lat="44.52646" lon="4.65118">
        <ele>298</ele>
        <time>2009-09-26T10:15:23Z</time>
      </trkpt>
      <trkpt lat="44.5265" lon="4.65108">
        <ele>298</ele>
        <time>2009-09-26T10:15:27Z</time>
      </trkpt>
      <trkpt lat="44.52661" lon="4.65062">
        <ele>298</ele>
        <time>2009-09-26T10:15:39Z</time>
      </trkpt>
      <trkpt lat="44.52658" lon="4.65017">
        <ele>298</ele>
        <time>2009-09-26T10:15:51Z</time>
      </trkpt>
      <trkpt lat="44.52652" lon="4.64993">
        <ele>300</ele>
        <time>2009-09-26T10:16:03Z</time>
      </trkpt>
      <trkpt lat="44.5265" lon="4.64982">
        <ele>301</ele>
        <time>2009-09-26T10:16:09Z</time>
      </trkpt>
      <trkpt lat="44.52646" lon="4.64969">
        <ele>302</ele>
        <time>2009-09-26T10:16:15Z</time>
      </trkpt>
      <trkpt lat="44.52646" lon="4.64964">
        <ele>302</ele>
        <time>2009-09-26T10:16:17Z</time>
      </trkpt>
      <trkpt lat="44.52641" lon="4.64943">
        <ele>305</ele>
        <time>2009-09-26T10:16:29Z</time>
      </trkpt>
      <trkpt lat="44.52637" lon="4.64926">
        <ele>308</ele>
        <time>2009-09-26T10:16:41Z</time>
      </trkpt>
      <trkpt lat="44.52634" lon="4.64916">
        <ele>310</ele>
        <time>2009-09-26T10:16:48Z</time>
      </trkpt>
      <trkpt lat="44.5263" lon="4.64896">
        <ele>312</ele>
        <time>2009-09-26T10:17:00Z</time>
      </trkpt>
      <trkpt lat="44.5263" lon="4.64891">
        <ele>313</ele>
        <time>2009-09-26T10:17:03Z</time>
      </trkpt>
      <trkpt lat="44.52628" lon="4.64887">
        <ele>314</ele>
        <time>2009-09-26T10:17:06Z</time>
      </trkpt>
      <trkpt lat="44.52628" lon="4.64883">
        <ele>314</ele>
        <time>2009-09-26T10:17:08Z</time>
      </trkpt>
      <trkpt lat="44.52623" lon="4.64872">
        <ele>315</ele>
        <time>2009-09-26T10:17:17Z</time>
      </trkpt>
      <trkpt lat="44.52619" lon="4.64841">
        <ele>318</ele>
        <time>2009-09-26T10:17:35Z</time>
      </trkpt>
      <trkpt lat="44.52618" lon="4.64818">
        <ele>320</ele>
        <time>2009-09-26T10:17:47Z</time>
      </trkpt>
      <trkpt lat="44.5262" lon="4.648">
        <ele>322</ele>
        <time>2009-09-26T10:17:56Z</time>
      </trkpt>
      <trkpt lat="44.5262" lon="4.64769">
        <ele>322</ele>
        <time>2009-09-26T10:18:11Z</time>
      </trkpt>
      <trkpt lat="44.52618" lon="4.64731">
        <ele>321</ele>
        <time>2009-09-26T10:18:24Z</time>
      </trkpt>
      <trkpt lat="44.52607" lon="4.64685">
        <ele>321</ele>
        <time>2009-09-26T10:18:39Z</time>
      </trkpt>
      <trkpt lat="44.52598" lon="4.64648">
        <ele>323</ele>
        <time>2009-09-26T10:18:53Z</time>
      </trkpt>
      <trkpt lat="44.52599" lon="4.64617">
        <ele>325</ele>
        <time>2009-09-26T10:19:07Z</time>
      </trkpt>
      <trkpt lat="44.52601" lon="4.64586">
        <ele>326</ele>
        <time>2009-09-26T10:19:21Z</time>
      </trkpt>
      <trkpt lat="44.52602" lon="4.64567">
        <ele>327</ele>
        <time>2009-09-26T10:19:29Z</time>
      </trkpt>
      <trkpt lat="44.52601" lon="4.64557">
        <ele>328</ele>
        <time>2009-09-26T10:19:34Z</time>
      </trkpt>
      <trkpt lat="44.52594" lon="4.64528">
        <ele>330</ele>
        <time>2009-09-26T10:19:48Z</time>
      </trkpt>
      <trkpt lat="44.52585" lon="4.64501">
        <ele>331</ele>
        <time>2009-09-26T10:20:00Z</time>
      </trkpt>
      <trkpt lat="44.52582" lon="4.64478">
        <ele>332</ele>
        <time>2009-09-26T10:20:10Z</time>
      </trkpt>
      <trkpt lat="44.52581" lon="4.64474">
        <ele>332</ele>
        <time>2009-09-26T10:20:12Z</time>
      </trkpt>
      <trkpt lat="44.52578" lon="4.64464">
        <ele>333</ele>
        <time>2009-09-26T10:20:18Z</time>
      </trkpt>
      <trkpt lat="44.52575" lon="4.64451">
        <ele>333</ele>
        <time>2009-09-26T10:20:25Z</time>
      </trkpt>
      <trkpt lat="44.52568" lon="4.64432">
        <ele>334</ele>
        <time>2009-09-26T10:20:35Z</time>
      </trkpt>
      <trkpt lat="44.52567" lon="4.64427">
        <ele>334</ele>
        <time>2009-09-26T10:20:37Z</time>
      </trkpt>
      <trkpt lat="44.52575" lon="4.64385">
        <ele>335</ele>
        <time>2009-09-26T10:20:53Z</time>
      </trkpt>
      <trkpt lat="44.526" lon="4.64382">
        <ele>336</ele>
        <time>2009-09-26T10:21:06Z</time>
      </trkpt>
      <trkpt lat="44.52627" lon="4.64373">
        <ele>338</ele>
        <time>2009-09-26T10:21:19Z</time>
      </trkpt>
      <trkpt lat="44.52656" lon="4.64362">
        <ele>339</ele>
        <time>2009-09-26T10:21:34Z</time>
      </trkpt>
      <trkpt lat="44.52685" lon="4.64353">
        <ele>340</ele>
        <time>2009-09-26T10:21:48Z</time>
      </trkpt>
      <trkpt lat="44.52713" lon="4.64341">
        <ele>341</ele>
        <time>2009-09-26T10:22:03Z</time>
      </trkpt>
      <trkpt lat="44.52739" lon="4.64326">
        <ele>341</ele>
        <time>2009-09-26T10:22:15Z</time>
      </trkpt>
      <trkpt lat="44.52759" lon="4.64325">
        <ele>341</ele>
        <time>2009-09-26T10:22:26Z</time>
      </trkpt>
      <trkpt lat="44.52788" lon="4.64315">
        <ele>339</ele>
        <time>2009-09-26T10:22:36Z</time>
      </trkpt>
      <trkpt lat="44.52817" lon="4.64306">
        <ele>338</ele>
        <time>2009-09-26T10:22:45Z</time>
      </trkpt>
      <trkpt lat="44.52871" lon="4.64281">
        <ele>334</ele>
        <time>2009-09-26T10:22:56Z</time>
      </trkpt>
      <trkpt lat="44.52947" lon="4.6428">
        <ele>331</ele>
        <time>2009-09-26T10:23:09Z</time>
      </trkpt>
      <trkpt lat="44.53022" lon="4.64287">
        <ele>330</ele>
        <time>2009-09-26T10:23:19Z</time>
      </trkpt>
      <trkpt lat="44.53047" lon="4.64296">
        <ele>329</ele>
        <time>2009-09-26T10:23:22Z</time>
      </trkpt>
      <trkpt lat="44.53119" lon="4.64332">
        <ele>325</ele>
        <time>2009-09-26T10:23:31Z</time>
      </trkpt>
      <trkpt lat="44.53143" lon="4.64342">
        <ele>323</ele>
        <time>2009-09-26T10:23:34Z</time>
      </trkpt>
      <trkpt lat="44.53182" lon="4.64334">
        <ele>318</ele>
        <time>2009-09-26T10:23:39Z</time>
      </trkpt>
      <trkpt lat="44.53208" lon="4.64319">
        <ele>315</ele>
        <time>2009-09-26T10:23:44Z</time>
      </trkpt>
      <trkpt lat="44.5321" lon="4.64317">
        <ele>315</ele>
        <time>2009-09-26T10:23:45Z</time>
      </trkpt>
      <trkpt lat="44.53211" lon="4.64316">
        <ele>315</ele>
        <time>2009-09-26T10:23:46Z</time>
      </trkpt>
      <trkpt lat="44.53218" lon="4.64322">
        <ele>314</ele>
        <time>2009-09-26T10:24:01Z</time>
      </trkpt>
      <trkpt lat="44.53237" lon="4.64326">
        <ele>314</ele>
        <time>2009-09-26T10:24:21Z</time>
      </trkpt>
      <trkpt lat="44.53265" lon="4.64337">
        <ele>313</ele>
        <time>2009-09-26T10:24:33Z</time>
      </trkpt>
      <trkpt lat="44.53283" lon="4.64343">
        <ele>312</ele>
        <time>2009-09-26T10:24:39Z</time>
      </trkpt>
      <trkpt lat="44.53302" lon="4.6439">
        <ele>311</ele>
        <time>2009-09-26T10:24:47Z</time>
      </trkpt>
      <trkpt lat="44.53334" lon="4.64396">
        <ele>308</ele>
        <time>2009-09-26T10:24:56Z</time>
      </trkpt>
      <trkpt lat="44.53341" lon="4.64397">
        <ele>308</ele>
        <time>2009-09-26T10:25:00Z</time>
      </trkpt>
      <trkpt lat="44.53373" lon="4.64408">
        <ele>307</ele>
        <time>2009-09-26T10:25:10Z</time>
      </trkpt>
      <trkpt lat="44.53392" lon="4.64436">
        <ele>305</ele>
        <time>2009-09-26T10:25:23Z</time>
      </trkpt>
      <trkpt lat="44.53392" lon="4.64436">
        <ele>305</ele>
        <time>2009-09-26T10:25:44Z</time>
      </trkpt>
      <trkpt lat="44.53392" lon="4.64436">
        <ele>304</ele>
        <time>2009-09-26T10:27:12Z</time>
      </trkpt>
      <trkpt lat="44.53413" lon="4.64402">
        <ele>304</ele>
        <time>2009-09-26T10:28:27Z</time>
      </trkpt>
      <trkpt lat="44.5348" lon="4.64541">
        <ele>302</ele>
        <time>2009-09-26T10:28:37Z</time>
      </trkpt>
      <trkpt lat="44.53514" lon="4.64591">
        <ele>298</ele>
        <time>2009-09-26T10:28:43Z</time>
      </trkpt>
      <trkpt lat="44.53525" lon="4.64606">
        <ele>297</ele>
        <time>2009-09-26T10:28:45Z</time>
      </trkpt>
      <trkpt lat="44.5354" lon="4.64626">
        <ele>294</ele>
        <time>2009-09-26T10:28:48Z</time>
      </trkpt>
      <trkpt lat="44.53548" lon="4.64635">
        <ele>292</ele>
        <time>2009-09-26T10:28:51Z</time>
      </trkpt>
      <trkpt lat="44.53557" lon="4.64656">
        <ele>289</ele>
        <time>2009-09-26T10:29:00Z</time>
      </trkpt>
      <trkpt lat="44.53559" lon="4.64661">
        <ele>289</ele>
        <time>2009-09-26T10:29:02Z</time>
      </trkpt>
      <trkpt lat="44.53577" lon="4.64678">
        <ele>285</ele>
        <time>2009-09-26T10:29:11Z</time>
      </trkpt>
      <trkpt lat="44.53584" lon="4.64689">
        <ele>284</ele>
        <time>2009-09-26T10:29:16Z</time>
      </trkpt>
      <trkpt lat="44.53591" lon="4.647">
        <ele>283</ele>
        <time>2009-09-26T10:29:28Z</time>
      </trkpt>
      <trkpt lat="44.53592" lon="4.64701">
        <ele>282</ele>
        <time>2009-09-26T10:29:36Z</time>
      </trkpt>
      <trkpt lat="44.53607" lon="4.64709">
        <ele>281</ele>
        <time>2009-09-26T10:29:46Z</time>
      </trkpt>
      <trkpt lat="44.53627" lon="4.64729">
        <ele>280</ele>
        <time>2009-09-26T10:29:58Z</time>
      </trkpt>
      <trkpt lat="44.53627" lon="4.64732">
        <ele>280</ele>
        <time>2009-09-26T10:30:00Z</time>
      </trkpt>
      <trkpt lat="44.53626" lon="4.64737">
        <ele>280</ele>
        <time>2009-09-26T10:30:03Z</time>
      </trkpt>
      <trkpt lat="44.53643" lon="4.64773">
        <ele>279</ele>
        <time>2009-09-26T10:30:15Z</time>
      </trkpt>
      <trkpt lat="44.53648" lon="4.64784">
        <ele>278</ele>
        <time>2009-09-26T10:30:19Z</time>
      </trkpt>
      <trkpt lat="44.53668" lon="4.6482">
        <ele>275</ele>
        <time>2009-09-26T10:30:29Z</time>
      </trkpt>
      <trkpt lat="44.53678" lon="4.64855">
        <ele>272</ele>
        <time>2009-09-26T10:30:40Z</time>
      </trkpt>
      <trkpt lat="44.53678" lon="4.64864">
        <ele>272</ele>
        <time>2009-09-26T10:30:43Z</time>
      </trkpt>
      <trkpt lat="44.53688" lon="4.64887">
        <ele>268</ele>
        <time>2009-09-26T10:30:53Z</time>
      </trkpt>
      <trkpt lat="44.53689" lon="4.64893">
        <ele>267</ele>
        <time>2009-09-26T10:30:55Z</time>
      </trkpt>
      <trkpt lat="44.53687" lon="4.64906">
        <ele>266</ele>
        <time>2009-09-26T10:30:58Z</time>
      </trkpt>
      <trkpt lat="44.53685" lon="4.64937">
        <ele>264</ele>
        <time>2009-09-26T10:31:06Z</time>
      </trkpt>
      <trkpt lat="44.53687" lon="4.64961">
        <ele>265</ele>
        <time>2009-09-26T10:31:16Z</time>
      </trkpt>
      <trkpt lat="44.53686" lon="4.64966">
        <ele>265</ele>
        <time>2009-09-26T10:31:33Z</time>
      </trkpt>
      <trkpt lat="44.53687" lon="4.64969">
        <ele>265</ele>
        <time>2009-09-26T10:33:05Z</time>
      </trkpt>
      <trkpt lat="44.53692" lon="4.64991">
        <ele>264</ele>
        <time>2009-09-26T10:33:13Z</time>
      </trkpt>
      <trkpt lat="44.53706" lon="4.65004">
        <ele>263</ele>
        <time>2009-09-26T10:33:22Z</time>
      </trkpt>
      <trkpt lat="44.53714" lon="4.6501">
        <ele>261</ele>
        <time>2009-09-26T10:33:28Z</time>
      </trkpt>
      <trkpt lat="44.53716" lon="4.6501">
        <ele>262</ele>
        <time>2009-09-26T10:33:29Z</time>
      </trkpt>
      <trkpt lat="44.53731" lon="4.65021">
        <ele>258</ele>
        <time>2009-09-26T10:33:37Z</time>
      </trkpt>
      <trkpt lat="44.53742" lon="4.65023">
        <ele>256</ele>
        <time>2009-09-26T10:33:43Z</time>
      </trkpt>
      <trkpt lat="44.53745" lon="4.65024">
        <ele>255</ele>
        <time>2009-09-26T10:34:03Z</time>
      </trkpt>
      <trkpt lat="44.53755" lon="4.65032">
        <ele>252</ele>
        <time>2009-09-26T10:34:15Z</time>
      </trkpt>
      <trkpt lat="44.53764" lon="4.65043">
        <ele>248</ele>
        <time>2009-09-26T10:34:24Z</time>
      </trkpt>
      <trkpt lat="44.53766" lon="4.65043">
        <ele>248</ele>
        <time>2009-09-26T10:34:25Z</time>
      </trkpt>
      <trkpt lat="44.53774" lon="4.65045">
        <ele>245</ele>
        <time>2009-09-26T10:34:30Z</time>
      </trkpt>
      <trkpt lat="44.53782" lon="4.65049">
        <ele>242</ele>
        <time>2009-09-26T10:34:44Z</time>
      </trkpt>
      <trkpt lat="44.53792" lon="4.65054">
        <ele>239</ele>
        <time>2009-09-26T10:34:50Z</time>
      </trkpt>
      <trkpt lat="44.53801" lon="4.65056">
        <ele>235</ele>
        <time>2009-09-26T10:34:55Z</time>
      </trkpt>
      <trkpt lat="44.53812" lon="4.65061">
        <ele>232</ele>
        <time>2009-09-26T10:35:00Z</time>
      </trkpt>
      <trkpt lat="44.53819" lon="4.65061">
        <ele>230</ele>
        <time>2009-09-26T10:35:04Z</time>
      </trkpt>
      <trkpt lat="44.53827" lon="4.6506">
        <ele>227</ele>
        <time>2009-09-26T10:35:09Z</time>
      </trkpt>
      <trkpt lat="44.53835" lon="4.65063">
        <ele>222</ele>
        <time>2009-09-26T10:35:15Z</time>
      </trkpt>
      <trkpt lat="44.53845" lon="4.65067">
        <ele>219</ele>
        <time>2009-09-26T10:35:21Z</time>
      </trkpt>
      <trkpt lat="44.53844" lon="4.65067">
        <ele>219</ele>
        <time>2009-09-26T10:35:22Z</time>
      </trkpt>
      <trkpt lat="44.5385" lon="4.65071">
        <ele>215</ele>
        <time>2009-09-26T10:35:59Z</time>
      </trkpt>
      <trkpt lat="44.53858" lon="4.65072">
        <ele>213</ele>
        <time>2009-09-26T10:36:03Z</time>
      </trkpt>
      <trkpt lat="44.53865" lon="4.65074">
        <ele>209</ele>
        <time>2009-09-26T10:36:09Z</time>
      </trkpt>
      <trkpt lat="44.53874" lon="4.65077">
        <ele>205</ele>
        <time>2009-09-26T10:36:15Z</time>
      </trkpt>
      <trkpt lat="44.53876" lon="4.65082">
        <ele>203</ele>
        <time>2009-09-26T10:36:19Z</time>
      </trkpt>
      <trkpt lat="44.53881" lon="4.65093">
        <ele>200</ele>
        <time>2009-09-26T10:36:27Z</time>
      </trkpt>
      <trkpt lat="44.53879" lon="4.65091">
        <ele>200</ele>
        <time>2009-09-26T10:36:31Z</time>
      </trkpt>
      <trkpt lat="44.53877" lon="4.65084">
        <ele>202</ele>
        <time>2009-09-26T10:36:42Z</time>
      </trkpt>
      <trkpt lat="44.53877" lon="4.65082">
        <ele>201</ele>
        <time>2009-09-26T10:37:14Z</time>
      </trkpt>
      <trkpt lat="44.53879" lon="4.6509">
        <ele>200</ele>
        <time>2009-09-26T10:37:37Z</time>
      </trkpt>
      <trkpt lat="44.53882" lon="4.65094">
        <ele>200</ele>
        <time>2009-09-26T10:38:06Z</time>
      </trkpt>
      <trkpt lat="44.53882" lon="4.65094">
        <ele>199</ele>
        <time>2009-09-26T10:38:22Z</time>
      </trkpt>
      <trkpt lat="44.53893" lon="4.65095">
        <ele>197</ele>
        <time>2009-09-26T10:38:26Z</time>
      </trkpt>
      <trkpt lat="44.53901" lon="4.6509">
        <ele>200</ele>
        <time>2009-09-26T10:38:33Z</time>
      </trkpt>
      <trkpt lat="44.53905" lon="4.65088">
        <ele>201</ele>
        <time>2009-09-26T10:38:37Z</time>
      </trkpt>
      <trkpt lat="44.53907" lon="4.65085">
        <ele>202</ele>
        <time>2009-09-26T10:38:39Z</time>
      </trkpt>
      <trkpt lat="44.5391" lon="4.65083">
        <ele>202</ele>
        <time>2009-09-26T10:38:42Z</time>
      </trkpt>
      <trkpt lat="44.53919" lon="4.65074">
        <ele>205</ele>
        <time>2009-09-26T10:38:54Z</time>
      </trkpt>
      <trkpt lat="44.5393" lon="4.65077">
        <ele>203</ele>
        <time>2009-09-26T10:39:58Z</time>
      </trkpt>
      <trkpt lat="44.53937" lon="4.65082">
        <ele>203</ele>
        <time>2009-09-26T10:40:05Z</time>
      </trkpt>
      <trkpt lat="44.53942" lon="4.65087">
        <ele>203</ele>
        <time>2009-09-26T10:40:15Z</time>
      </trkpt>
      <trkpt lat="44.5394" lon="4.65099">
        <ele>202</ele>
        <time>2009-09-26T10:40:19Z</time>
      </trkpt>
      <trkpt lat="44.53949" lon="4.6512">
        <ele>201</ele>
        <time>2009-09-26T10:40:28Z</time>
      </trkpt>
      <trkpt lat="44.53951" lon="4.65133">
        <ele>200</ele>
        <time>2009-09-26T10:40:41Z</time>
      </trkpt>
      <trkpt lat="44.5395" lon="4.6514">
        <ele>199</ele>
        <time>2009-09-26T10:40:59Z</time>
      </trkpt>
      <trkpt lat="44.53953" lon="4.65149">
        <ele>198</ele>
        <time>2009-09-26T10:41:22Z</time>
      </trkpt>
      <trkpt lat="44.53955" lon="4.65158">
        <ele>196</ele>
        <time>2009-09-26T10:41:26Z</time>
      </trkpt>
      <trkpt lat="44.53953" lon="4.6517">
        <ele>191</ele>
        <time>2009-09-26T10:41:31Z</time>
      </trkpt>
      <trkpt lat="44.53952" lon="4.65172">
        <ele>191</ele>
        <time>2009-09-26T10:41:32Z</time>
      </trkpt>
      <trkpt lat="44.53951" lon="4.65178">
        <ele>190</ele>
        <time>2009-09-26T10:41:45Z</time>
      </trkpt>
      <trkpt lat="44.53955" lon="4.6519">
        <ele>188</ele>
        <time>2009-09-26T10:42:04Z</time>
      </trkpt>
      <trkpt lat="44.53957" lon="4.65209">
        <ele>185</ele>
        <time>2009-09-26T10:42:15Z</time>
      </trkpt>
      <trkpt lat="44.53953" lon="4.65214">
        <ele>185</ele>
        <time>2009-09-26T10:42:19Z</time>
      </trkpt>
      <trkpt lat="44.5395" lon="4.65221">
        <ele>185</ele>
        <time>2009-09-26T10:42:23Z</time>
      </trkpt>
      <trkpt lat="44.5395" lon="4.65225">
        <ele>186</ele>
        <time>2009-09-26T10:42:25Z</time>
      </trkpt>
      <trkpt lat="44.53953" lon="4.65231">
        <ele>184</ele>
        <time>2009-09-26T10:42:40Z</time>
      </trkpt>
      <trkpt lat="44.53968" lon="4.65249">
        <ele>181</ele>
        <time>2009-09-26T10:44:17Z</time>
      </trkpt>
      <trkpt lat="44.53971" lon="4.65252">
        <ele>180</ele>
        <time>2009-09-26T10:44:18Z</time>
      </trkpt>
      <trkpt lat="44.53988" lon="4.6527">
        <ele>176</ele>
        <time>2009-09-26T10:44:25Z</time>
      </trkpt>
      <trkpt lat="44.53992" lon="4.65274">
        <ele>176</ele>
        <time>2009-09-26T10:44:27Z</time>
      </trkpt>
      <trkpt lat="44.53995" lon="4.65289">
        <ele>174</ele>
        <time>2009-09-26T10:44:34Z</time>
      </trkpt>
      <trkpt lat="44.53996" lon="4.65307">
        <ele>172</ele>
        <time>2009-09-26T10:44:40Z</time>
      </trkpt>
      <trkpt lat="44.54023" lon="4.65338">
        <ele>168</ele>
        <time>2009-09-26T10:44:54Z</time>
      </trkpt>
      <trkpt lat="44.54034" lon="4.6535">
        <ele>166</ele>
        <time>2009-09-26T10:44:59Z</time>
      </trkpt>
      <trkpt lat="44.54037" lon="4.65352">
        <ele>165</ele>
        <time>2009-09-26T10:45:00Z</time>
      </trkpt>
      <trkpt lat="44.54044" lon="4.65371">
        <ele>163</ele>
        <time>2009-09-26T10:45:05Z</time>
      </trkpt>
      <trkpt lat="44.54051" lon="4.65392">
        <ele>160</ele>
        <time>2009-09-26T10:45:10Z</time>
      </trkpt>
      <trkpt lat="44.54056" lon="4.6541">
        <ele>157</ele>
        <time>2009-09-26T10:45:14Z</time>
      </trkpt>
      <trkpt lat="44.54058" lon="4.65415">
        <ele>156</ele>
        <time>2009-09-26T10:45:16Z</time>
      </trkpt>
      <trkpt lat="44.54058" lon="4.65417">
        <ele>155</ele>
        <time>2009-09-26T10:45:41Z</time>
      </trkpt>
      <trkpt lat="44.54059" lon="4.65417">
        <ele>155</ele>
        <time>2009-09-26T10:46:59Z</time>
      </trkpt>
      <trkpt lat="44.5406" lon="4.65435">
        <ele>153</ele>
        <time>2009-09-26T10:47:06Z</time>
      </trkpt>
      <trkpt lat="44.54062" lon="4.65453">
        <ele>153</ele>
        <time>2009-09-26T10:47:16Z</time>
      </trkpt>
      <trkpt lat="44.54063" lon="4.65458">
        <ele>153</ele>
        <time>2009-09-26T10:47:30Z</time>
      </trkpt>
      <trkpt lat="44.54064" lon="4.65472">
        <ele>155</ele>
        <time>2009-09-26T10:47:37Z</time>
      </trkpt>
      <trkpt lat="44.5406" lon="4.65484">
        <ele>156</ele>
        <time>2009-09-26T10:47:54Z</time>
      </trkpt>
      <trkpt lat="44.54063" lon="4.65495">
        <ele>157</ele>
        <time>2009-09-26T10:47:58Z</time>
      </trkpt>
      <trkpt lat="44.54072" lon="4.65511">
        <ele>154</ele>
        <time>2009-09-26T10:48:04Z</time>
      </trkpt>
      <trkpt lat="44.54077" lon="4.65514">
        <ele>153</ele>
        <time>2009-09-26T10:48:14Z</time>
      </trkpt>
      <trkpt lat="44.54077" lon="4.65513">
        <ele>153</ele>
        <time>2009-09-26T10:48:52Z</time>
      </trkpt>
      <trkpt lat="44.541" lon="4.65504">
        <ele>151</ele>
        <time>2009-09-26T10:48:59Z</time>
      </trkpt>
      <trkpt lat="44.54101" lon="4.65485">
        <ele>150</ele>
        <time>2009-09-26T10:49:03Z</time>
      </trkpt>
      <trkpt lat="44.541" lon="4.65416">
        <ele>151</ele>
        <time>2009-09-26T10:49:18Z</time>
      </trkpt>
      <trkpt lat="44.54111" lon="4.65364">
        <ele>153</ele>
        <time>2009-09-26T10:49:30Z</time>
      </trkpt>
      <trkpt lat="44.54128" lon="4.65295">
        <ele>153</ele>
        <time>2009-09-26T10:49:45Z</time>
      </trkpt>
      <trkpt lat="44.54127" lon="4.65253">
        <ele>154</ele>
        <time>2009-09-26T10:49:56Z</time>
      </trkpt>
      <trkpt lat="44.54126" lon="4.65243">
        <ele>155</ele>
        <time>2009-09-26T10:50:00Z</time>
      </trkpt>
      <trkpt lat="44.54123" lon="4.65232">
        <ele>156</ele>
        <time>2009-09-26T10:50:05Z</time>
      </trkpt>
      <trkpt lat="44.54113" lon="4.65206">
        <ele>159</ele>
        <time>2009-09-26T10:50:20Z</time>
      </trkpt>
      <trkpt lat="44.54105" lon="4.65179">
        <ele>162</ele>
        <time>2009-09-26T10:50:34Z</time>
      </trkpt>
      <trkpt lat="44.541" lon="4.65156">
        <ele>165</ele>
        <time>2009-09-26T10:50:48Z</time>
      </trkpt>
      <trkpt lat="44.54098" lon="4.65137">
        <ele>167</ele>
        <time>2009-09-26T10:51:00Z</time>
      </trkpt>
      <trkpt lat="44.54098" lon="4.65132">
        <ele>167</ele>
        <time>2009-09-26T10:51:03Z</time>
      </trkpt>
      <trkpt lat="44.54098" lon="4.65105">
        <ele>169</ele>
        <time>2009-09-26T10:51:18Z</time>
      </trkpt>
      <trkpt lat="44.54098" lon="4.65104">
        <ele>169</ele>
        <time>2009-09-26T10:51:20Z</time>
      </trkpt>
      <trkpt lat="44.54098" lon="4.65104">
        <ele>170</ele>
        <time>2009-09-26T10:51:24Z</time>
      </trkpt>
      <trkpt lat="44.541" lon="4.65087">
        <ele>171</ele>
        <time>2009-09-26T10:51:36Z</time>
      </trkpt>
      <trkpt lat="44.54104" lon="4.65061">
        <ele>173</ele>
        <time>2009-09-26T10:51:51Z</time>
      </trkpt>
      <trkpt lat="44.54106" lon="4.65048">
        <ele>174</ele>
        <time>2009-09-26T10:51:58Z</time>
      </trkpt>
      <trkpt lat="44.54111" lon="4.65023">
        <ele>176</ele>
        <time>2009-09-26T10:52:12Z</time>
      </trkpt>
      <trkpt lat="44.54112" lon="4.65016">
        <ele>178</ele>
        <time>2009-09-26T10:52:23Z</time>
      </trkpt>
      <trkpt lat="44.54115" lon="4.64987">
        <ele>179</ele>
        <time>2009-09-26T10:52:33Z</time>
      </trkpt>
      <trkpt lat="44.54115" lon="4.6498">
        <ele>179</ele>
        <time>2009-09-26T10:52:37Z</time>
      </trkpt>
      <trkpt lat="44.54113" lon="4.64955">
        <ele>181</ele>
        <time>2009-09-26T10:52:53Z</time>
      </trkpt>
      <trkpt lat="44.54113" lon="4.64936">
        <ele>183</ele>
        <time>2009-09-26T10:53:03Z</time>
      </trkpt>
      <trkpt lat="44.54115" lon="4.64928">
        <ele>184</ele>
        <time>2009-09-26T10:53:13Z</time>
      </trkpt>
      <trkpt lat="44.54121" lon="4.64898">
        <ele>187</ele>
        <time>2009-09-26T10:53:28Z</time>
      </trkpt>
      <trkpt lat="44.54122" lon="4.64897">
        <ele>187</ele>
        <time>2009-09-26T10:53:32Z</time>
      </trkpt>
      <trkpt lat="44.54129" lon="4.64865">
        <ele>187</ele>
        <time>2009-09-26T10:53:42Z</time>
      </trkpt>
      <trkpt lat="44.54132" lon="4.64828">
        <ele>188</ele>
        <time>2009-09-26T10:53:54Z</time>
      </trkpt>
      <trkpt lat="44.54132" lon="4.64821">
        <ele>188</ele>
        <time>2009-09-26T10:53:56Z</time>
      </trkpt>
      <trkpt lat="44.54132" lon="4.64819">
        <ele>187</ele>
        <time>2009-09-26T10:54:16Z</time>
      </trkpt>
      <trkpt lat="44.54132" lon="4.64819">
        <ele>187</ele>
        <time>2009-09-26T10:55:27Z</time>
      </trkpt>
      <trkpt lat="44.5416" lon="4.64771">
        <ele>184</ele>
        <time>2009-09-26T10:55:38Z</time>
      </trkpt>
      <trkpt lat="44.5419" lon="4.64722">
        <ele>182</ele>
        <time>2009-09-26T10:55:45Z</time>
      </trkpt>
      <trkpt lat="44.54211" lon="4.64702">
        <ele>182</ele>
        <time>2009-09-26T10:55:50Z</time>
      </trkpt>
      <trkpt lat="44.54239" lon="4.64695">
        <ele>185</ele>
        <time>2009-09-26T10:56:05Z</time>
      </trkpt>
      <trkpt lat="44.54254" lon="4.64688">
        <ele>187</ele>
        <time>2009-09-26T10:56:17Z</time>
      </trkpt>
      <trkpt lat="44.54264" lon="4.64677">
        <ele>189</ele>
        <time>2009-09-26T10:56:27Z</time>
      </trkpt>
      <trkpt lat="44.54274" lon="4.64651">
        <ele>190</ele>
        <time>2009-09-26T10:56:43Z</time>
      </trkpt>
      <trkpt lat="44.5429" lon="4.64639">
        <ele>193</ele>
        <time>2009-09-26T10:56:57Z</time>
      </trkpt>
      <trkpt lat="44.5431" lon="4.64624">
        <ele>195</ele>
        <time>2009-09-26T10:57:12Z</time>
      </trkpt>
      <trkpt lat="44.54328" lon="4.64609">
        <ele>197</ele>
        <time>2009-09-26T10:57:26Z</time>
      </trkpt>
      <trkpt lat="44.54344" lon="4.64595">
        <ele>199</ele>
        <time>2009-09-26T10:57:40Z</time>
      </trkpt>
      <trkpt lat="44.54359" lon="4.64583">
        <ele>201</ele>
        <time>2009-09-26T10:57:52Z</time>
      </trkpt>
      <trkpt lat="44.54376" lon="4.6457">
        <ele>203</ele>
        <time>2009-09-26T10:58:07Z</time>
      </trkpt>
      <trkpt lat="44.54394" lon="4.64557">
        <ele>205</ele>
        <time>2009-09-26T10:58:20Z</time>
      </trkpt>
      <trkpt lat="44.54417" lon="4.64544">
        <ele>207</ele>
        <time>2009-09-26T10:58:36Z</time>
      </trkpt>
      <trkpt lat="44.54442" lon="4.64521">
        <ele>210</ele>
        <time>2009-09-26T10:58:55Z</time>
      </trkpt>
      <trkpt lat="44.54459" lon="4.64506">
        <ele>212</ele>
        <time>2009-09-26T10:59:09Z</time>
      </trkpt>
      <trkpt lat="44.54473" lon="4.64494">
        <ele>215</ele>
        <time>2009-09-26T10:59:21Z</time>
      </trkpt>
      <trkpt lat="44.54476" lon="4.6449">
        <ele>215</ele>
        <time>2009-09-26T10:59:24Z</time>
      </trkpt>
      <trkpt lat="44.54475" lon="4.64482">
        <ele>216</ele>
        <time>2009-09-26T10:59:29Z</time>
      </trkpt>
      <trkpt lat="44.54464" lon="4.64489">
        <ele>217</ele>
        <time>2009-09-26T10:59:39Z</time>
      </trkpt>
      <trkpt lat="44.54455" lon="4.64492">
        <ele>218</ele>
        <time>2009-09-26T10:59:46Z</time>
      </trkpt>
      <trkpt lat="44.54432" lon="4.64495">
        <ele>219</ele>
        <time>2009-09-26T11:00:02Z</time>
      </trkpt>
      <trkpt lat="44.54414" lon="4.64497">
        <ele>221</ele>
        <time>2009-09-26T11:00:16Z</time>
      </trkpt>
      <trkpt lat="44.54409" lon="4.64498">
        <ele>221</ele>
        <time>2009-09-26T11:00:20Z</time>
      </trkpt>
      <trkpt lat="44.5439" lon="4.64499">
        <ele>223</ele>
        <time>2009-09-26T11:00:34Z</time>
      </trkpt>
      <trkpt lat="44.54368" lon="4.64501">
        <ele>225</ele>
        <time>2009-09-26T11:00:50Z</time>
      </trkpt>
      <trkpt lat="44.54352" lon="4.64501">
        <ele>227</ele>
        <time>2009-09-26T11:01:03Z</time>
      </trkpt>
      <trkpt lat="44.54344" lon="4.64499">
        <ele>227</ele>
        <time>2009-09-26T11:01:09Z</time>
      </trkpt>
      <trkpt lat="44.54324" lon="4.64496">
        <ele>229</ele>
        <time>2009-09-26T11:01:24Z</time>
      </trkpt>
      <trkpt lat="44.54309" lon="4.64489">
        <ele>231</ele>
        <time>2009-09-26T11:01:38Z</time>
      </trkpt>
      <trkpt lat="44.54293" lon="4.64483">
        <ele>233</ele>
        <time>2009-09-26T11:01:51Z</time>
      </trkpt>
      <trkpt lat="44.54277" lon="4.64474">
        <ele>235</ele>
        <time>2009-09-26T11:02:04Z</time>
      </trkpt>
      <trkpt lat="44.54256" lon="4.64466">
        <ele>237</ele>
        <time>2009-09-26T11:02:19Z</time>
      </trkpt>
      <trkpt lat="44.54236" lon="4.6445">
        <ele>240</ele>
        <time>2009-09-26T11:02:34Z</time>
      </trkpt>
      <trkpt lat="44.54215" lon="4.64435">
        <ele>242</ele>
        <time>2009-09-26T11:02:50Z</time>
      </trkpt>
      <trkpt lat="44.54194" lon="4.64424">
        <ele>244</ele>
        <time>2009-09-26T11:03:06Z</time>
      </trkpt>
      <trkpt lat="44.54173" lon="4.64413">
        <ele>246</ele>
        <time>2009-09-26T11:03:21Z</time>
      </trkpt>
      <trkpt lat="44.54149" lon="4.64402">
        <ele>249</ele>
        <time>2009-09-26T11:03:38Z</time>
      </trkpt>
      <trkpt lat="44.54132" lon="4.64391">
        <ele>251</ele>
        <time>2009-09-26T11:03:52Z</time>
      </trkpt>
      <trkpt lat="44.54111" lon="4.64376">
        <ele>253</ele>
        <time>2009-09-26T11:04:06Z</time>
      </trkpt>
      <trkpt lat="44.54107" lon="4.64372">
        <ele>253</ele>
        <time>2009-09-26T11:04:10Z</time>
      </trkpt>
      <trkpt lat="44.54116" lon="4.64366">
        <ele>255</ele>
        <time>2009-09-26T11:04:21Z</time>
      </trkpt>
      <trkpt lat="44.54118" lon="4.64368">
        <ele>255</ele>
        <time>2009-09-26T11:04:23Z</time>
      </trkpt>
      <trkpt lat="44.54148" lon="4.64371">
        <ele>258</ele>
        <time>2009-09-26T11:04:42Z</time>
      </trkpt>
      <trkpt lat="44.54153" lon="4.64372">
        <ele>258</ele>
        <time>2009-09-26T11:04:45Z</time>
      </trkpt>
      <trkpt lat="44.54173" lon="4.64372">
        <ele>260</ele>
        <time>2009-09-26T11:05:01Z</time>
      </trkpt>
      <trkpt lat="44.54192" lon="4.64372">
        <ele>263</ele>
        <time>2009-09-26T11:05:15Z</time>
      </trkpt>
      <trkpt lat="44.54213" lon="4.6437">
        <ele>264</ele>
        <time>2009-09-26T11:05:29Z</time>
      </trkpt>
      <trkpt lat="44.54225" lon="4.64369">
        <ele>265</ele>
        <time>2009-09-26T11:05:38Z</time>
      </trkpt>
      <trkpt lat="44.54238" lon="4.64369">
        <ele>267</ele>
        <time>2009-09-26T11:05:48Z</time>
      </trkpt>
      <trkpt lat="44.54243" lon="4.64368">
        <ele>267</ele>
        <time>2009-09-26T11:05:52Z</time>
      </trkpt>
      <trkpt lat="44.54261" lon="4.64365">
        <ele>269</ele>
        <time>2009-09-26T11:06:05Z</time>
      </trkpt>
      <trkpt lat="44.54282" lon="4.64362">
        <ele>271</ele>
        <time>2009-09-26T11:06:19Z</time>
      </trkpt>
      <trkpt lat="44.54284" lon="4.64361">
        <ele>271</ele>
        <time>2009-09-26T11:06:21Z</time>
      </trkpt>
      <trkpt lat="44.54298" lon="4.64359">
        <ele>273</ele>
        <time>2009-09-26T11:06:31Z</time>
      </trkpt>
      <trkpt lat="44.54306" lon="4.64355">
        <ele>273</ele>
        <time>2009-09-26T11:06:36Z</time>
      </trkpt>
      <trkpt lat="44.54325" lon="4.6435">
        <ele>276</ele>
        <time>2009-09-26T11:06:51Z</time>
      </trkpt>
      <trkpt lat="44.54341" lon="4.64347">
        <ele>277</ele>
        <time>2009-09-26T11:07:04Z</time>
      </trkpt>
      <trkpt lat="44.5436" lon="4.64339">
        <ele>279</ele>
        <time>2009-09-26T11:07:18Z</time>
      </trkpt>
      <trkpt lat="44.54379" lon="4.64332">
        <ele>281</ele>
        <time>2009-09-26T11:07:31Z</time>
      </trkpt>
      <trkpt lat="44.54401" lon="4.64323">
        <ele>283</ele>
        <time>2009-09-26T11:07:46Z</time>
      </trkpt>
      <trkpt lat="44.54421" lon="4.6431">
        <ele>285</ele>
        <time>2009-09-26T11:08:01Z</time>
      </trkpt>
      <trkpt lat="44.54438" lon="4.64302">
        <ele>287</ele>
        <time>2009-09-26T11:08:14Z</time>
      </trkpt>
      <trkpt lat="44.5446" lon="4.64287">
        <ele>289</ele>
        <time>2009-09-26T11:08:31Z</time>
      </trkpt>
      <trkpt lat="44.54477" lon="4.64273">
        <ele>291</ele>
        <time>2009-09-26T11:08:44Z</time>
      </trkpt>
      <trkpt lat="44.54497" lon="4.6426">
        <ele>293</ele>
        <time>2009-09-26T11:08:59Z</time>
      </trkpt>
      <trkpt lat="44.54512" lon="4.64249">
        <ele>296</ele>
        <time>2009-09-26T11:09:12Z</time>
      </trkpt>
      <trkpt lat="44.54532" lon="4.64232">
        <ele>298</ele>
        <time>2009-09-26T11:09:28Z</time>
      </trkpt>
      <trkpt lat="44.54541" lon="4.6422">
        <ele>300</ele>
        <time>2009-09-26T11:09:41Z</time>
      </trkpt>
      <trkpt lat="44.54551" lon="4.6421">
        <ele>302</ele>
        <time>2009-09-26T11:09:52Z</time>
      </trkpt>
      <trkpt lat="44.54565" lon="4.6419">
        <ele>304</ele>
        <time>2009-09-26T11:10:08Z</time>
      </trkpt>
      <trkpt lat="44.54581" lon="4.6417">
        <ele>307</ele>
        <time>2009-09-26T11:10:23Z</time>
      </trkpt>
      <trkpt lat="44.54596" lon="4.64151">
        <ele>309</ele>
        <time>2009-09-26T11:10:39Z</time>
      </trkpt>
      <trkpt lat="44.54609" lon="4.64124">
        <ele>311</ele>
        <time>2009-09-26T11:10:53Z</time>
      </trkpt>
      <trkpt lat="44.54619" lon="4.64096">
        <ele>312</ele>
        <time>2009-09-26T11:11:06Z</time>
      </trkpt>
      <trkpt lat="44.54633" lon="4.64066">
        <ele>314</ele>
        <time>2009-09-26T11:11:21Z</time>
      </trkpt>
      <trkpt lat="44.54647" lon="4.64028">
        <ele>315</ele>
        <time>2009-09-26T11:11:36Z</time>
      </trkpt>
      <trkpt lat="44.54654" lon="4.63992">
        <ele>317</ele>
        <time>2009-09-26T11:11:49Z</time>
      </trkpt>
      <trkpt lat="44.54641" lon="4.63946">
        <ele>320</ele>
        <time>2009-09-26T11:12:07Z</time>
      </trkpt>
      <trkpt lat="44.54619" lon="4.63915">
        <ele>322</ele>
        <time>2009-09-26T11:12:23Z</time>
      </trkpt>
      <trkpt lat="44.54593" lon="4.63885">
        <ele>323</ele>
        <time>2009-09-26T11:12:41Z</time>
      </trkpt>
      <trkpt lat="44.54569" lon="4.63858">
        <ele>325</ele>
        <time>2009-09-26T11:12:57Z</time>
      </trkpt>
      <trkpt lat="44.54562" lon="4.63847">
        <ele>325</ele>
        <time>2009-09-26T11:13:12Z</time>
      </trkpt>
      <trkpt lat="44.54558" lon="4.63846">
        <ele>325</ele>
        <time>2009-09-26T11:13:28Z</time>
      </trkpt>
      <trkpt lat="44.54557" lon="4.63845">
        <ele>326</ele>
        <time>2009-09-26T11:16:03Z</time>
      </trkpt>
      <trkpt lat="44.54561" lon="4.63822">
        <ele>327</ele>
        <time>2009-09-26T11:16:14Z</time>
      </trkpt>
      <trkpt lat="44.5456" lon="4.63817">
        <ele>327</ele>
        <time>2009-09-26T11:16:16Z</time>
      </trkpt>
      <trkpt lat="44.54561" lon="4.63774">
        <ele>330</ele>
        <time>2009-09-26T11:16:31Z</time>
      </trkpt>
      <trkpt lat="44.54578" lon="4.63774">
        <ele>332</ele>
        <time>2009-09-26T11:16:43Z</time>
      </trkpt>
      <trkpt lat="44.54603" lon="4.63778">
        <ele>334</ele>
        <time>2009-09-26T11:16:57Z</time>
      </trkpt>
      <trkpt lat="44.54612" lon="4.63777">
        <ele>335</ele>
        <time>2009-09-26T11:17:03Z</time>
      </trkpt>
      <trkpt lat="44.54625" lon="4.63774">
        <ele>337</ele>
        <time>2009-09-26T11:17:15Z</time>
      </trkpt>
      <trkpt lat="44.5465" lon="4.63768">
        <ele>339</ele>
        <time>2009-09-26T11:17:31Z</time>
      </trkpt>
      <trkpt lat="44.54674" lon="4.63759">
        <ele>341</ele>
        <time>2009-09-26T11:17:47Z</time>
      </trkpt>
      <trkpt lat="44.54698" lon="4.63754">
        <ele>343</ele>
        <time>2009-09-26T11:18:02Z</time>
      </trkpt>
      <trkpt lat="44.54702" lon="4.63751">
        <ele>344</ele>
        <time>2009-09-26T11:18:05Z</time>
      </trkpt>
      <trkpt lat="44.54703" lon="4.63741">
        <ele>345</ele>
        <time>2009-09-26T11:18:11Z</time>
      </trkpt>
      <trkpt lat="44.547" lon="4.63735">
        <ele>346</ele>
        <time>2009-09-26T11:18:15Z</time>
      </trkpt>
      <trkpt lat="44.54683" lon="4.63718">
        <ele>348</ele>
        <time>2009-09-26T11:18:30Z</time>
      </trkpt>
      <trkpt lat="44.54686" lon="4.63688">
        <ele>351</ele>
        <time>2009-09-26T11:18:44Z</time>
      </trkpt>
      <trkpt lat="44.54702" lon="4.63671">
        <ele>352</ele>
        <time>2009-09-26T11:18:57Z</time>
      </trkpt>
      <trkpt lat="44.54706" lon="4.6367">
        <ele>352</ele>
        <time>2009-09-26T11:18:59Z</time>
      </trkpt>
      <trkpt lat="44.54727" lon="4.63667">
        <ele>353</ele>
        <time>2009-09-26T11:19:12Z</time>
      </trkpt>
      <trkpt lat="44.54735" lon="4.63662">
        <ele>354</ele>
        <time>2009-09-26T11:19:19Z</time>
      </trkpt>
      <trkpt lat="44.54754" lon="4.63647">
        <ele>355</ele>
        <time>2009-09-26T11:19:32Z</time>
      </trkpt>
      <trkpt lat="44.54782" lon="4.63638">
        <ele>355</ele>
        <time>2009-09-26T11:19:45Z</time>
      </trkpt>
      <trkpt lat="44.54812" lon="4.63625">
        <ele>355</ele>
        <time>2009-09-26T11:19:58Z</time>
      </trkpt>
      <trkpt lat="44.5484" lon="4.63605">
        <ele>354</ele>
        <time>2009-09-26T11:20:10Z</time>
      </trkpt>
      <trkpt lat="44.54873" lon="4.63574">
        <ele>354</ele>
        <time>2009-09-26T11:20:22Z</time>
      </trkpt>
      <trkpt lat="44.54909" lon="4.63569">
        <ele>355</ele>
        <time>2009-09-26T11:20:33Z</time>
      </trkpt>
      <trkpt lat="44.54949" lon="4.63565">
        <ele>356</ele>
        <time>2009-09-26T11:20:48Z</time>
      </trkpt>
      <trkpt lat="44.54977" lon="4.63583">
        <ele>358</ele>
        <time>2009-09-26T11:21:02Z</time>
      </trkpt>
      <trkpt lat="44.55013" lon="4.63577">
        <ele>358</ele>
        <time>2009-09-26T11:21:17Z</time>
      </trkpt>
      <trkpt lat="44.55022" lon="4.63564">
        <ele>359</ele>
        <time>2009-09-26T11:21:26Z</time>
      </trkpt>
      <trkpt lat="44.55037" lon="4.63562">
        <ele>360</ele>
        <time>2009-09-26T11:21:38Z</time>
      </trkpt>
      <trkpt lat="44.55038" lon="4.6356">
        <ele>360</ele>
        <time>2009-09-26T11:21:40Z</time>
      </trkpt>
      <trkpt lat="44.55043" lon="4.6355">
        <ele>362</ele>
        <time>2009-09-26T11:21:47Z</time>
      </trkpt>
      <trkpt lat="44.5506" lon="4.63527">
        <ele>365</ele>
        <time>2009-09-26T11:22:01Z</time>
      </trkpt>
      <trkpt lat="44.55061" lon="4.63525">
        <ele>365</ele>
        <time>2009-09-26T11:22:02Z</time>
      </trkpt>
      <trkpt lat="44.55063" lon="4.63517">
        <ele>366</ele>
        <time>2009-09-26T11:22:07Z</time>
      </trkpt>
      <trkpt lat="44.55068" lon="4.63495">
        <ele>369</ele>
        <time>2009-09-26T11:22:21Z</time>
      </trkpt>
      <trkpt lat="44.55069" lon="4.63488">
        <ele>369</ele>
        <time>2009-09-26T11:22:24Z</time>
      </trkpt>
      <trkpt lat="44.5507" lon="4.63485">
        <ele>370</ele>
        <time>2009-09-26T11:22:26Z</time>
      </trkpt>
      <trkpt lat="44.55084" lon="4.63476">
        <ele>372</ele>
        <time>2009-09-26T11:22:41Z</time>
      </trkpt>
      <trkpt lat="44.55086" lon="4.63469">
        <ele>372</ele>
        <time>2009-09-26T11:22:45Z</time>
      </trkpt>
      <trkpt lat="44.55092" lon="4.63461">
        <ele>373</ele>
        <time>2009-09-26T11:23:00Z</time>
      </trkpt>
      <trkpt lat="44.55098" lon="4.63461">
        <ele>375</ele>
        <time>2009-09-26T11:24:19Z</time>
      </trkpt>
      <trkpt lat="44.55123" lon="4.63455">
        <ele>377</ele>
        <time>2009-09-26T11:24:33Z</time>
      </trkpt>
      <trkpt lat="44.55142" lon="4.63442">
        <ele>379</ele>
        <time>2009-09-26T11:24:47Z</time>
      </trkpt>
      <trkpt lat="44.55143" lon="4.63441">
        <ele>379</ele>
        <time>2009-09-26T11:24:48Z</time>
      </trkpt>
      <trkpt lat="44.55164" lon="4.63428">
        <ele>382</ele>
        <time>2009-09-26T11:25:02Z</time>
      </trkpt>
      <trkpt lat="44.55171" lon="4.63426">
        <ele>382</ele>
        <time>2009-09-26T11:25:07Z</time>
      </trkpt>
      <trkpt lat="44.55182" lon="4.63427">
        <ele>383</ele>
        <time>2009-09-26T11:25:22Z</time>
      </trkpt>
      <trkpt lat="44.55181" lon="4.63428">
        <ele>383</ele>
        <time>2009-09-26T11:25:43Z</time>
      </trkpt>
      <trkpt lat="44.55189" lon="4.63426">
        <ele>384</ele>
        <time>2009-09-26T11:25:49Z</time>
      </trkpt>
      <trkpt lat="44.55207" lon="4.63426">
        <ele>385</ele>
        <time>2009-09-26T11:26:02Z</time>
      </trkpt>
      <trkpt lat="44.55224" lon="4.63424">
        <ele>385</ele>
        <time>2009-09-26T11:26:16Z</time>
      </trkpt>
      <trkpt lat="44.5525" lon="4.63422">
        <ele>386</ele>
        <time>2009-09-26T11:26:30Z</time>
      </trkpt>
      <trkpt lat="44.55262" lon="4.63411">
        <ele>387</ele>
        <time>2009-09-26T11:26:37Z</time>
      </trkpt>
      <trkpt lat="44.55279" lon="4.63412">
        <ele>388</ele>
        <time>2009-09-26T11:26:43Z</time>
      </trkpt>
      <trkpt lat="44.55301" lon="4.63415">
        <ele>387</ele>
        <time>2009-09-26T11:26:56Z</time>
      </trkpt>
      <trkpt lat="44.55305" lon="4.63418">
        <ele>387</ele>
        <time>2009-09-26T11:27:11Z</time>
      </trkpt>
      <trkpt lat="44.55318" lon="4.63427">
        <ele>387</ele>
        <time>2009-09-26T11:27:19Z</time>
      </trkpt>
      <trkpt lat="44.55322" lon="4.63427">
        <ele>387</ele>
        <time>2009-09-26T11:27:21Z</time>
      </trkpt>
      <trkpt lat="44.55337" lon="4.63419">
        <ele>388</ele>
        <time>2009-09-26T11:27:26Z</time>
      </trkpt>
      <trkpt lat="44.55369" lon="4.63423">
        <ele>388</ele>
        <time>2009-09-26T11:27:36Z</time>
      </trkpt>
      <trkpt lat="44.55373" lon="4.63419">
        <ele>388</ele>
        <time>2009-09-26T11:27:38Z</time>
      </trkpt>
      <trkpt lat="44.55397" lon="4.63397">
        <ele>389</ele>
        <time>2009-09-26T11:27:43Z</time>
      </trkpt>
      <trkpt lat="44.55405" lon="4.63399">
        <ele>389</ele>
        <time>2009-09-26T11:27:46Z</time>
      </trkpt>
      <trkpt lat="44.55415" lon="4.63401">
        <ele>390</ele>
        <time>2009-09-26T11:27:48Z</time>
      </trkpt>
      <trkpt lat="44.55428" lon="4.63406">
        <ele>390</ele>
        <time>2009-09-26T11:27:51Z</time>
      </trkpt>
      <trkpt lat="44.55434" lon="4.63409">
        <ele>390</ele>
        <time>2009-09-26T11:27:53Z</time>
      </trkpt>
      <trkpt lat="44.55436" lon="4.63423">
        <ele>390</ele>
        <time>2009-09-26T11:27:57Z</time>
      </trkpt>
      <trkpt lat="44.55447" lon="4.63416">
        <ele>389</ele>
        <time>2009-09-26T11:28:08Z</time>
      </trkpt>
      <trkpt lat="44.55448" lon="4.63416">
        <ele>389</ele>
        <time>2009-09-26T11:28:22Z</time>
      </trkpt>
      <trkpt lat="44.55479" lon="4.63416">
        <ele>390</ele>
        <time>2009-09-26T11:28:36Z</time>
      </trkpt>
      <trkpt lat="44.55516" lon="4.63416">
        <ele>391</ele>
        <time>2009-09-26T11:28:51Z</time>
      </trkpt>
      <trkpt lat="44.55553" lon="4.63414">
        <ele>391</ele>
        <time>2009-09-26T11:29:05Z</time>
      </trkpt>
      <trkpt lat="44.55586" lon="4.63399">
        <ele>391</ele>
        <time>2009-09-26T11:29:18Z</time>
      </trkpt>
      <trkpt lat="44.55627" lon="4.63391">
        <ele>394</ele>
        <time>2009-09-26T11:29:32Z</time>
      </trkpt>
      <trkpt lat="44.55661" lon="4.63387">
        <ele>395</ele>
        <time>2009-09-26T11:29:47Z</time>
      </trkpt>
      <trkpt lat="44.55683" lon="4.63396">
        <ele>397</ele>
        <time>2009-09-26T11:29:58Z</time>
      </trkpt>
      <trkpt lat="44.55709" lon="4.63404">
        <ele>398</ele>
        <time>2009-09-26T11:30:13Z</time>
      </trkpt>
      <trkpt lat="44.55737" lon="4.63423">
        <ele>399</ele>
        <time>2009-09-26T11:30:31Z</time>
      </trkpt>
      <trkpt lat="44.55758" lon="4.63439">
        <ele>399</ele>
        <time>2009-09-26T11:30:42Z</time>
      </trkpt>
      <trkpt lat="44.55784" lon="4.63417">
        <ele>400</ele>
        <time>2009-09-26T11:30:55Z</time>
      </trkpt>
      <trkpt lat="44.55804" lon="4.63411">
        <ele>401</ele>
        <time>2009-09-26T11:31:08Z</time>
      </trkpt>
      <trkpt lat="44.55813" lon="4.63429">
        <ele>404</ele>
        <time>2009-09-26T11:31:20Z</time>
      </trkpt>
      <trkpt lat="44.5582" lon="4.63441">
        <ele>406</ele>
        <time>2009-09-26T11:31:28Z</time>
      </trkpt>
      <trkpt lat="44.55829" lon="4.63458">
        <ele>410</ele>
        <time>2009-09-26T11:31:40Z</time>
      </trkpt>
      <trkpt lat="44.55832" lon="4.63466">
        <ele>411</ele>
        <time>2009-09-26T11:31:44Z</time>
      </trkpt>
      <trkpt lat="44.55841" lon="4.63487">
        <ele>415</ele>
        <time>2009-09-26T11:31:58Z</time>
      </trkpt>
      <trkpt lat="44.55853" lon="4.63507">
        <ele>418</ele>
        <time>2009-09-26T11:32:12Z</time>
      </trkpt>
      <trkpt lat="44.55866" lon="4.63526">
        <ele>421</ele>
        <time>2009-09-26T11:32:29Z</time>
      </trkpt>
      <trkpt lat="44.55875" lon="4.6354">
        <ele>422</ele>
        <time>2009-09-26T11:32:39Z</time>
      </trkpt>
      <trkpt lat="44.55877" lon="4.63549">
        <ele>422</ele>
        <time>2009-09-26T11:33:02Z</time>
      </trkpt>
      <trkpt lat="44.55877" lon="4.63548">
        <ele>421</ele>
        <time>2009-09-26T11:35:51Z</time>
      </trkpt>
      <trkpt lat="44.55877" lon="4.6355">
        <ele>422</ele>
        <time>2009-09-26T11:37:11Z</time>
      </trkpt>
      <trkpt lat="44.55862" lon="4.63564">
        <ele>425</ele>
        <time>2009-09-26T11:37:27Z</time>
      </trkpt>
      <trkpt lat="44.5585" lon="4.63574">
        <ele>428</ele>
        <time>2009-09-26T11:37:37Z</time>
      </trkpt>
      <trkpt lat="44.55838" lon="4.63588">
        <ele>430</ele>
        <time>2009-09-26T11:37:52Z</time>
      </trkpt>
      <trkpt lat="44.5583" lon="4.63596">
        <ele>432</ele>
        <time>2009-09-26T11:38:01Z</time>
      </trkpt>
      <trkpt lat="44.55818" lon="4.63612">
        <ele>435</ele>
        <time>2009-09-26T11:38:16Z</time>
      </trkpt>
      <trkpt lat="44.55807" lon="4.63625">
        <ele>438</ele>
        <time>2009-09-26T11:38:29Z</time>
      </trkpt>
      <trkpt lat="44.55801" lon="4.63633">
        <ele>438</ele>
        <time>2009-09-26T11:38:38Z</time>
      </trkpt>
      <trkpt lat="44.55788" lon="4.63653">
        <ele>441</ele>
        <time>2009-09-26T11:38:55Z</time>
      </trkpt>
      <trkpt lat="44.55773" lon="4.63675">
        <ele>444</ele>
        <time>2009-09-26T11:39:12Z</time>
      </trkpt>
      <trkpt lat="44.55771" lon="4.63678">
        <ele>445</ele>
        <time>2009-09-26T11:39:14Z</time>
      </trkpt>
      <trkpt lat="44.55762" lon="4.6371">
        <ele>448</ele>
        <time>2009-09-26T11:39:32Z</time>
      </trkpt>
      <trkpt lat="44.55761" lon="4.63721">
        <ele>448</ele>
        <time>2009-09-26T11:39:45Z</time>
      </trkpt>
      <trkpt lat="44.5576" lon="4.63722">
        <ele>448</ele>
        <time>2009-09-26T11:40:55Z</time>
      </trkpt>
      <trkpt lat="44.55758" lon="4.63743">
        <ele>447</ele>
        <time>2009-09-26T11:43:06Z</time>
      </trkpt>
      <trkpt lat="44.55759" lon="4.638">
        <ele>444</ele>
        <time>2009-09-26T11:43:13Z</time>
      </trkpt>
      <trkpt lat="44.55762" lon="4.63858">
        <ele>443</ele>
        <time>2009-09-26T11:43:19Z</time>
      </trkpt>
      <trkpt lat="44.55757" lon="4.63885">
        <ele>443</ele>
        <time>2009-09-26T11:43:23Z</time>
      </trkpt>
      <trkpt lat="44.55746" lon="4.63897">
        <ele>442</ele>
        <time>2009-09-26T11:43:26Z</time>
      </trkpt>
      <trkpt lat="44.55728" lon="4.6393">
        <ele>439</ele>
        <time>2009-09-26T11:43:31Z</time>
      </trkpt>
      <trkpt lat="44.55718" lon="4.63944">
        <ele>437</ele>
        <time>2009-09-26T11:43:34Z</time>
      </trkpt>
      <trkpt lat="44.55716" lon="4.63964">
        <ele>435</ele>
        <time>2009-09-26T11:43:38Z</time>
      </trkpt>
      <trkpt lat="44.55719" lon="4.63976">
        <ele>433</ele>
        <time>2009-09-26T11:43:40Z</time>
      </trkpt>
      <trkpt lat="44.55723" lon="4.63995">
        <ele>428</ele>
        <time>2009-09-26T11:43:44Z</time>
      </trkpt>
      <trkpt lat="44.55722" lon="4.63999">
        <ele>427</ele>
        <time>2009-09-26T11:43:45Z</time>
      </trkpt>
      <trkpt lat="44.55716" lon="4.64018">
        <ele>423</ele>
        <time>2009-09-26T11:43:50Z</time>
      </trkpt>
      <trkpt lat="44.55708" lon="4.64031">
        <ele>419</ele>
        <time>2009-09-26T11:43:54Z</time>
      </trkpt>
      <trkpt lat="44.55706" lon="4.64034">
        <ele>418</ele>
        <time>2009-09-26T11:43:55Z</time>
      </trkpt>
      <trkpt lat="44.55709" lon="4.64048">
        <ele>415</ele>
        <time>2009-09-26T11:43:59Z</time>
      </trkpt>
      <trkpt lat="44.55711" lon="4.6405">
        <ele>414</ele>
        <time>2009-09-26T11:44:00Z</time>
      </trkpt>
      <trkpt lat="44.55714" lon="4.64059">
        <ele>413</ele>
        <time>2009-09-26T11:44:04Z</time>
      </trkpt>
      <trkpt lat="44.55713" lon="4.64063">
        <ele>413</ele>
        <time>2009-09-26T11:44:05Z</time>
      </trkpt>
      <trkpt lat="44.55699" lon="4.64069">
        <ele>411</ele>
        <time>2009-09-26T11:44:09Z</time>
      </trkpt>
      <trkpt lat="44.55688" lon="4.64084">
        <ele>408</ele>
        <time>2009-09-26T11:44:14Z</time>
      </trkpt>
      <trkpt lat="44.55688" lon="4.64086">
        <ele>407</ele>
        <time>2009-09-26T11:44:29Z</time>
      </trkpt>
      <trkpt lat="44.55691" lon="4.64086">
        <ele>407</ele>
        <time>2009-09-26T11:45:32Z</time>
      </trkpt>
      <trkpt lat="44.55696" lon="4.64089">
        <ele>408</ele>
        <time>2009-09-26T11:45:36Z</time>
      </trkpt>
      <trkpt lat="44.55704" lon="4.64091">
        <ele>408</ele>
        <time>2009-09-26T11:45:42Z</time>
      </trkpt>
      <trkpt lat="44.55662" lon="4.64112">
        <ele>405</ele>
        <time>2009-09-26T11:45:46Z</time>
      </trkpt>
      <trkpt lat="44.55717" lon="4.64121">
        <ele>403</ele>
        <time>2009-09-26T11:45:48Z</time>
      </trkpt>
      <trkpt lat="44.55721" lon="4.64154">
        <ele>400</ele>
        <time>2009-09-26T11:45:56Z</time>
      </trkpt>
      <trkpt lat="44.55725" lon="4.64167">
        <ele>397</ele>
        <time>2009-09-26T11:45:59Z</time>
      </trkpt>
      <trkpt lat="44.55709" lon="4.64203">
        <ele>394</ele>
        <time>2009-09-26T11:46:07Z</time>
      </trkpt>
      <trkpt lat="44.55694" lon="4.64214">
        <ele>394</ele>
        <time>2009-09-26T11:46:11Z</time>
      </trkpt>
      <trkpt lat="44.55681" lon="4.64231">
        <ele>391</ele>
        <time>2009-09-26T11:46:16Z</time>
      </trkpt>
      <trkpt lat="44.55685" lon="4.64239">
        <ele>390</ele>
        <time>2009-09-26T11:46:32Z</time>
      </trkpt>
      <trkpt lat="44.55694" lon="4.6425">
        <ele>389</ele>
        <time>2009-09-26T11:46:56Z</time>
      </trkpt>
      <trkpt lat="44.55693" lon="4.64268">
        <ele>386</ele>
        <time>2009-09-26T11:47:00Z</time>
      </trkpt>
      <trkpt lat="44.55689" lon="4.64288">
        <ele>383</ele>
        <time>2009-09-26T11:47:06Z</time>
      </trkpt>
      <trkpt lat="44.55678" lon="4.64302">
        <ele>380</ele>
        <time>2009-09-26T11:47:12Z</time>
      </trkpt>
      <trkpt lat="44.55672" lon="4.64308">
        <ele>379</ele>
        <time>2009-09-26T11:47:17Z</time>
      </trkpt>
      <trkpt lat="44.5567" lon="4.64316">
        <ele>377</ele>
        <time>2009-09-26T11:47:22Z</time>
      </trkpt>
      <trkpt lat="44.55664" lon="4.64334">
        <ele>373</ele>
        <time>2009-09-26T11:47:28Z</time>
      </trkpt>
      <trkpt lat="44.55664" lon="4.64353">
        <ele>370</ele>
        <time>2009-09-26T11:47:33Z</time>
      </trkpt>
      <trkpt lat="44.55664" lon="4.64357">
        <ele>369</ele>
        <time>2009-09-26T11:47:34Z</time>
      </trkpt>
      <trkpt lat="44.55667" lon="4.64372">
        <ele>367</ele>
        <time>2009-09-26T11:47:38Z</time>
      </trkpt>
      <trkpt lat="44.55666" lon="4.6439">
        <ele>363</ele>
        <time>2009-09-26T11:47:44Z</time>
      </trkpt>
      <trkpt lat="44.55666" lon="4.64394">
        <ele>363</ele>
        <time>2009-09-26T11:47:47Z</time>
      </trkpt>
      <trkpt lat="44.55669" lon="4.6441">
        <ele>360</ele>
        <time>2009-09-26T11:47:54Z</time>
      </trkpt>
      <trkpt lat="44.55668" lon="4.64415">
        <ele>359</ele>
        <time>2009-09-26T11:47:56Z</time>
      </trkpt>
      <trkpt lat="44.55669" lon="4.6443">
        <ele>356</ele>
        <time>2009-09-26T11:48:04Z</time>
      </trkpt>
      <trkpt lat="44.55669" lon="4.64433">
        <ele>356</ele>
        <time>2009-09-26T11:48:05Z</time>
      </trkpt>
      <trkpt lat="44.55673" lon="4.6444">
        <ele>354</ele>
        <time>2009-09-26T11:48:08Z</time>
      </trkpt>
      <trkpt lat="44.55689" lon="4.64449">
        <ele>351</ele>
        <time>2009-09-26T11:48:17Z</time>
      </trkpt>
      <trkpt lat="44.55701" lon="4.64451">
        <ele>349</ele>
        <time>2009-09-26T11:48:27Z</time>
      </trkpt>
      <trkpt lat="44.5571" lon="4.64449">
        <ele>349</ele>
        <time>2009-09-26T11:48:45Z</time>
      </trkpt>
      <trkpt lat="44.55712" lon="4.6445">
        <ele>349</ele>
        <time>2009-09-26T11:48:55Z</time>
      </trkpt>
      <trkpt lat="44.55744" lon="4.64456">
        <ele>345</ele>
        <time>2009-09-26T11:49:06Z</time>
      </trkpt>
      <trkpt lat="44.55764" lon="4.64461">
        <ele>345</ele>
        <time>2009-09-26T11:49:17Z</time>
      </trkpt>
      <trkpt lat="44.55782" lon="4.64473">
        <ele>348</ele>
        <time>2009-09-26T11:49:27Z</time>
      </trkpt>
      <trkpt lat="44.55787" lon="4.6448">
        <ele>348</ele>
        <time>2009-09-26T11:49:32Z</time>
      </trkpt>
      <trkpt lat="44.55797" lon="4.64479">
        <ele>351</ele>
        <time>2009-09-26T11:49:41Z</time>
      </trkpt>
      <trkpt lat="44.55798" lon="4.64483">
        <ele>350</ele>
        <time>2009-09-26T11:50:01Z</time>
      </trkpt>
      <trkpt lat="44.55803" lon="4.64518">
        <ele>350</ele>
        <time>2009-09-26T11:50:54Z</time>
      </trkpt>
      <trkpt lat="44.55794" lon="4.64558">
        <ele>346</ele>
        <time>2009-09-26T11:51:08Z</time>
      </trkpt>
      <trkpt lat="44.55786" lon="4.64603">
        <ele>344</ele>
        <time>2009-09-26T11:51:17Z</time>
      </trkpt>
      <trkpt lat="44.55783" lon="4.64622">
        <ele>343</ele>
        <time>2009-09-26T11:51:20Z</time>
      </trkpt>
      <trkpt lat="44.55763" lon="4.64682">
        <ele>342</ele>
        <time>2009-09-26T11:51:34Z</time>
      </trkpt>
      <trkpt lat="44.5575" lon="4.64699">
        <ele>338</ele>
        <time>2009-09-26T11:51:39Z</time>
      </trkpt>
      <trkpt lat="44.55748" lon="4.64702">
        <ele>338</ele>
        <time>2009-09-26T11:51:40Z</time>
      </trkpt>
      <trkpt lat="44.55733" lon="4.64723">
        <ele>334</ele>
        <time>2009-09-26T11:51:45Z</time>
      </trkpt>
      <trkpt lat="44.55722" lon="4.64732">
        <ele>331</ele>
        <time>2009-09-26T11:51:56Z</time>
      </trkpt>
      <trkpt lat="44.55722" lon="4.64732">
        <ele>330</ele>
        <time>2009-09-26T11:52:01Z</time>
      </trkpt>
      <trkpt lat="44.55722" lon="4.64732">
        <ele>327</ele>
        <time>2009-09-26T11:52:08Z</time>
      </trkpt>
      <trkpt lat="44.55688" lon="4.64853">
        <ele>324</ele>
        <time>2009-09-26T11:52:22Z</time>
      </trkpt>
      <trkpt lat="44.55683" lon="4.6487">
        <ele>325</ele>
        <time>2009-09-26T11:52:34Z</time>
      </trkpt>
      <trkpt lat="44.55683" lon="4.64883">
        <ele>325</ele>
        <time>2009-09-26T11:52:55Z</time>
      </trkpt>
      <trkpt lat="44.5568" lon="4.64918">
        <ele>324</ele>
        <time>2009-09-26T11:53:06Z</time>
      </trkpt>
      <trkpt lat="44.55682" lon="4.64939">
        <ele>324</ele>
        <time>2009-09-26T11:53:16Z</time>
      </trkpt>
      <trkpt lat="44.55681" lon="4.64955">
        <ele>325</ele>
        <time>2009-09-26T11:53:28Z</time>
      </trkpt>
      <trkpt lat="44.55668" lon="4.64984">
        <ele>324</ele>
        <time>2009-09-26T11:53:42Z</time>
      </trkpt>
      <trkpt lat="44.55652" lon="4.65022">
        <ele>321</ele>
        <time>2009-09-26T11:53:51Z</time>
      </trkpt>
      <trkpt lat="44.55644" lon="4.65036">
        <ele>320</ele>
        <time>2009-09-26T11:53:55Z</time>
      </trkpt>
      <trkpt lat="44.55618" lon="4.65066">
        <ele>317</ele>
        <time>2009-09-26T11:54:01Z</time>
      </trkpt>
      <trkpt lat="44.55604" lon="4.65081">
        <ele>315</ele>
        <time>2009-09-26T11:54:04Z</time>
      </trkpt>
      <trkpt lat="44.5559" lon="4.65101">
        <ele>314</ele>
        <time>2009-09-26T11:54:07Z</time>
      </trkpt>
      <trkpt lat="44.55552" lon="4.65132">
        <ele>311</ele>
        <time>2009-09-26T11:54:17Z</time>
      </trkpt>
      <trkpt lat="44.55535" lon="4.65141">
        <ele>307</ele>
        <time>2009-09-26T11:54:23Z</time>
      </trkpt>
      <trkpt lat="44.55532" lon="4.65143">
        <ele>307</ele>
        <time>2009-09-26T11:54:24Z</time>
      </trkpt>
      <trkpt lat="44.55511" lon="4.65141">
        <ele>305</ele>
        <time>2009-09-26T11:54:29Z</time>
      </trkpt>
      <trkpt lat="44.55488" lon="4.65132">
        <ele>301</ele>
        <time>2009-09-26T11:54:34Z</time>
      </trkpt>
      <trkpt lat="44.55483" lon="4.65128">
        <ele>299</ele>
        <time>2009-09-26T11:54:36Z</time>
      </trkpt>
      <trkpt lat="44.55468" lon="4.65127">
        <ele>295</ele>
        <time>2009-09-26T11:54:40Z</time>
      </trkpt>
      <trkpt lat="44.55463" lon="4.6513">
        <ele>294</ele>
        <time>2009-09-26T11:54:42Z</time>
      </trkpt>
      <trkpt lat="44.5544" lon="4.65124">
        <ele>290</ele>
        <time>2009-09-26T11:54:49Z</time>
      </trkpt>
      <trkpt lat="44.55411" lon="4.65129">
        <ele>287</ele>
        <time>2009-09-26T11:54:57Z</time>
      </trkpt>
      <trkpt lat="44.55398" lon="4.65133">
        <ele>285</ele>
        <time>2009-09-26T11:55:00Z</time>
      </trkpt>
      <trkpt lat="44.5538" lon="4.65137">
        <ele>282</ele>
        <time>2009-09-26T11:55:05Z</time>
      </trkpt>
      <trkpt lat="44.55367" lon="4.65142">
        <ele>279</ele>
        <time>2009-09-26T11:55:09Z</time>
      </trkpt>
      <trkpt lat="44.55348" lon="4.65138">
        <ele>277</ele>
        <time>2009-09-26T11:55:14Z</time>
      </trkpt>
      <trkpt lat="44.55303" lon="4.65127">
        <ele>274</ele>
        <time>2009-09-26T11:55:25Z</time>
      </trkpt>
      <trkpt lat="44.55303" lon="4.65127">
        <ele>273</ele>
        <time>2009-09-26T11:55:38Z</time>
      </trkpt>
      <trkpt lat="44.55303" lon="4.65127">
        <ele>273</ele>
        <time>2009-09-26T11:57:30Z</time>
      </trkpt>
      <trkpt lat="44.5529" lon="4.65129">
        <ele>273</ele>
        <time>2009-09-26T11:57:34Z</time>
      </trkpt>
      <trkpt lat="44.5527" lon="4.65132">
        <ele>271</ele>
        <time>2009-09-26T11:57:39Z</time>
      </trkpt>
      <trkpt lat="44.55227" lon="4.65132">
        <ele>267</ele>
        <time>2009-09-26T11:57:46Z</time>
      </trkpt>
      <trkpt lat="44.55207" lon="4.65138">
        <ele>264</ele>
        <time>2009-09-26T11:57:51Z</time>
      </trkpt>
      <trkpt lat="44.55194" lon="4.65144">
        <ele>260</ele>
        <time>2009-09-26T11:57:55Z</time>
      </trkpt>
      <trkpt lat="44.55182" lon="4.65149">
        <ele>257</ele>
        <time>2009-09-26T11:57:59Z</time>
      </trkpt>
      <trkpt lat="44.55169" lon="4.65155">
        <ele>254</ele>
        <time>2009-09-26T11:58:03Z</time>
      </trkpt>
      <trkpt lat="44.55161" lon="4.65159">
        <ele>253</ele>
        <time>2009-09-26T11:58:05Z</time>
      </trkpt>
      <trkpt lat="44.55145" lon="4.65171">
        <ele>251</ele>
        <time>2009-09-26T11:58:09Z</time>
      </trkpt>
      <trkpt lat="44.55124" lon="4.65194">
        <ele>250</ele>
        <time>2009-09-26T11:58:19Z</time>
      </trkpt>
      <trkpt lat="44.55124" lon="4.65194">
        <ele>250</ele>
        <time>2009-09-26T11:58:29Z</time>
      </trkpt>
      <trkpt lat="44.55119" lon="4.6522">
        <ele>246</ele>
        <time>2009-09-26T11:58:37Z</time>
      </trkpt>
      <trkpt lat="44.55119" lon="4.65232">
        <ele>243</ele>
        <time>2009-09-26T11:58:40Z</time>
      </trkpt>
      <trkpt lat="44.55107" lon="4.65247">
        <ele>242</ele>
        <time>2009-09-26T11:58:45Z</time>
      </trkpt>
      <trkpt lat="44.55068" lon="4.65284">
        <ele>241</ele>
        <time>2009-09-26T11:58:58Z</time>
      </trkpt>
      <trkpt lat="44.55043" lon="4.65302">
        <ele>240</ele>
        <time>2009-09-26T11:59:10Z</time>
      </trkpt>
      <trkpt lat="44.5504" lon="4.653">
        <ele>241</ele>
        <time>2009-09-26T11:59:41Z</time>
      </trkpt>
      <trkpt lat="44.55025" lon="4.65303">
        <ele>239</ele>
        <time>2009-09-26T11:59:47Z</time>
      </trkpt>
      <trkpt lat="44.54982" lon="4.65299">
        <ele>237</ele>
        <time>2009-09-26T11:59:52Z</time>
      </trkpt>
      <trkpt lat="44.54966" lon="4.65295">
        <ele>236</ele>
        <time>2009-09-26T11:59:55Z</time>
      </trkpt>
      <trkpt lat="44.54942" lon="4.653">
        <ele>235</ele>
        <time>2009-09-26T12:00:01Z</time>
      </trkpt>
      <trkpt lat="44.54932" lon="4.65308">
        <ele>235</ele>
        <time>2009-09-26T12:00:04Z</time>
      </trkpt>
      <trkpt lat="44.54901" lon="4.65329">
        <ele>234</ele>
        <time>2009-09-26T12:00:13Z</time>
      </trkpt>
      <trkpt lat="44.54884" lon="4.65329">
        <ele>233</ele>
        <time>2009-09-26T12:00:19Z</time>
      </trkpt>
      <trkpt lat="44.5487" lon="4.65334">
        <ele>232</ele>
        <time>2009-09-26T12:00:22Z</time>
      </trkpt>
      <trkpt lat="44.54859" lon="4.65335">
        <ele>231</ele>
        <time>2009-09-26T12:00:24Z</time>
      </trkpt>
      <trkpt lat="44.54845" lon="4.65335">
        <ele>230</ele>
        <time>2009-09-26T12:00:26Z</time>
      </trkpt>
      <trkpt lat="44.54819" lon="4.65312">
        <ele>230</ele>
        <time>2009-09-26T12:00:31Z</time>
      </trkpt>
      <trkpt lat="44.54804" lon="4.65285">
        <ele>232</ele>
        <time>2009-09-26T12:00:35Z</time>
      </trkpt>
      <trkpt lat="44.54798" lon="4.65241">
        <ele>235</ele>
        <time>2009-09-26T12:00:45Z</time>
      </trkpt>
      <trkpt lat="44.54803" lon="4.65224">
        <ele>235</ele>
        <time>2009-09-26T12:00:52Z</time>
      </trkpt>
      <trkpt lat="44.54827" lon="4.65186">
        <ele>231</ele>
        <time>2009-09-26T12:00:58Z</time>
      </trkpt>
      <trkpt lat="44.54827" lon="4.65169">
        <ele>228</ele>
        <time>2009-09-26T12:01:04Z</time>
      </trkpt>
      <trkpt lat="44.54818" lon="4.65173">
        <ele>227</ele>
        <time>2009-09-26T12:01:06Z</time>
      </trkpt>
      <trkpt lat="44.54808" lon="4.65177">
        <ele>226</ele>
        <time>2009-09-26T12:01:08Z</time>
      </trkpt>
      <trkpt lat="44.54807" lon="4.65162">
        <ele>224</ele>
        <time>2009-09-26T12:01:13Z</time>
      </trkpt>
      <trkpt lat="44.54828" lon="4.65142">
        <ele>223</ele>
        <time>2009-09-26T12:01:18Z</time>
      </trkpt>
      <trkpt lat="44.54855" lon="4.65128">
        <ele>222</ele>
        <time>2009-09-26T12:01:24Z</time>
      </trkpt>
      <trkpt lat="44.54852" lon="4.65113">
        <ele>221</ele>
        <time>2009-09-26T12:01:30Z</time>
      </trkpt>
      <trkpt lat="44.54812" lon="4.65137">
        <ele>218</ele>
        <time>2009-09-26T12:01:42Z</time>
      </trkpt>
      <trkpt lat="44.54761" lon="4.65165">
        <ele>215</ele>
        <time>2009-09-26T12:01:52Z</time>
      </trkpt>
      <trkpt lat="44.54734" lon="4.65189">
        <ele>214</ele>
        <time>2009-09-26T12:01:57Z</time>
      </trkpt>
      <trkpt lat="44.5471" lon="4.65205">
        <ele>212</ele>
        <time>2009-09-26T12:02:01Z</time>
      </trkpt>
      <trkpt lat="44.54692" lon="4.65202">
        <ele>211</ele>
        <time>2009-09-26T12:02:04Z</time>
      </trkpt>
      <trkpt lat="44.54653" lon="4.65185">
        <ele>207</ele>
        <time>2009-09-26T12:02:10Z</time>
      </trkpt>
      <trkpt lat="44.54625" lon="4.65188">
        <ele>202</ele>
        <time>2009-09-26T12:02:14Z</time>
      </trkpt>
      <trkpt lat="44.54596" lon="4.65209">
        <ele>198</ele>
        <time>2009-09-26T12:02:19Z</time>
      </trkpt>
      <trkpt lat="44.54576" lon="4.65232">
        <ele>197</ele>
        <time>2009-09-26T12:02:23Z</time>
      </trkpt>
      <trkpt lat="44.54548" lon="4.6525">
        <ele>195</ele>
        <time>2009-09-26T12:02:28Z</time>
      </trkpt>
      <trkpt lat="44.54516" lon="4.65276">
        <ele>193</ele>
        <time>2009-09-26T12:02:34Z</time>
      </trkpt>
      <trkpt lat="44.54494" lon="4.65308">
        <ele>192</ele>
        <time>2009-09-26T12:02:40Z</time>
      </trkpt>
      <trkpt lat="44.54486" lon="4.65316">
        <ele>191</ele>
        <time>2009-09-26T12:02:42Z</time>
      </trkpt>
      <trkpt lat="44.5448" lon="4.65351">
        <ele>189</ele>
        <time>2009-09-26T12:02:52Z</time>
      </trkpt>
      <trkpt lat="44.54479" lon="4.65358">
        <ele>188</ele>
        <time>2009-09-26T12:03:06Z</time>
      </trkpt>
      <trkpt lat="44.54479" lon="4.65358">
        <ele>188</ele>
        <time>2009-09-26T12:03:28Z</time>
      </trkpt>
      <trkpt lat="44.54475" lon="4.65388">
        <ele>185</ele>
        <time>2009-09-26T12:03:38Z</time>
      </trkpt>
      <trkpt lat="44.54505" lon="4.65402">
        <ele>184</ele>
        <time>2009-09-26T12:03:43Z</time>
      </trkpt>
      <trkpt lat="44.54509" lon="4.65403">
        <ele>183</ele>
        <time>2009-09-26T12:03:45Z</time>
      </trkpt>
      <trkpt lat="44.5451" lon="4.65399">
        <ele>183</ele>
        <time>2009-09-26T12:03:49Z</time>
      </trkpt>
      <trkpt lat="44.54513" lon="4.65393">
        <ele>183</ele>
        <time>2009-09-26T12:03:58Z</time>
      </trkpt>
      <trkpt lat="44.54509" lon="4.65404">
        <ele>183</ele>
        <time>2009-09-26T12:04:02Z</time>
      </trkpt>
      <trkpt lat="44.54507" lon="4.65421">
        <ele>182</ele>
        <time>2009-09-26T12:04:11Z</time>
      </trkpt>
      <trkpt lat="44.54516" lon="4.65429">
        <ele>179</ele>
        <time>2009-09-26T12:04:18Z</time>
      </trkpt>
      <trkpt lat="44.54518" lon="4.65431">
        <ele>178</ele>
        <time>2009-09-26T12:04:19Z</time>
      </trkpt>
      <trkpt lat="44.54525" lon="4.65439">
        <ele>174</ele>
        <time>2009-09-26T12:04:25Z</time>
      </trkpt>
      <trkpt lat="44.54534" lon="4.65448">
        <ele>170</ele>
        <time>2009-09-26T12:04:30Z</time>
      </trkpt>
      <trkpt lat="44.54548" lon="4.65462">
        <ele>166</ele>
        <time>2009-09-26T12:04:36Z</time>
      </trkpt>
      <trkpt lat="44.54571" lon="4.65481">
        <ele>163</ele>
        <time>2009-09-26T12:04:44Z</time>
      </trkpt>
      <trkpt lat="44.54588" lon="4.65493">
        <ele>159</ele>
        <time>2009-09-26T12:04:48Z</time>
      </trkpt>
      <trkpt lat="44.54594" lon="4.65503">
        <ele>158</ele>
        <time>2009-09-26T12:04:51Z</time>
      </trkpt>
      <trkpt lat="44.54621" lon="4.65537">
        <ele>160</ele>
        <time>2009-09-26T12:05:03Z</time>
      </trkpt>
      <trkpt lat="44.54644" lon="4.65566">
        <ele>157</ele>
        <time>2009-09-26T12:05:12Z</time>
      </trkpt>
      <trkpt lat="44.54657" lon="4.65582">
        <ele>154</ele>
        <time>2009-09-26T12:05:17Z</time>
      </trkpt>
      <trkpt lat="44.54676" lon="4.65607">
        <ele>154</ele>
        <time>2009-09-26T12:05:26Z</time>
      </trkpt>
      <trkpt lat="44.54695" lon="4.65623">
        <ele>156</ele>
        <time>2009-09-26T12:05:31Z</time>
      </trkpt>
      <trkpt lat="44.54721" lon="4.65657">
        <ele>155</ele>
        <time>2009-09-26T12:05:41Z</time>
      </trkpt>
      <trkpt lat="44.54743" lon="4.65711">
        <ele>153</ele>
        <time>2009-09-26T12:05:51Z</time>
      </trkpt>
      <trkpt lat="44.54763" lon="4.65748">
        <ele>151</ele>
        <time>2009-09-26T12:05:58Z</time>
      </trkpt>
      <trkpt lat="44.54771" lon="4.65766">
        <ele>149</ele>
        <time>2009-09-26T12:06:01Z</time>
      </trkpt>
      <trkpt lat="44.54773" lon="4.65772">
        <ele>148</ele>
        <time>2009-09-26T12:06:17Z</time>
      </trkpt>
      <trkpt lat="44.54774" lon="4.65774">
        <ele>149</ele>
        <time>2009-09-26T12:06:48Z</time>
      </trkpt>
      <trkpt lat="44.54788" lon="4.65807">
        <ele>146</ele>
        <time>2009-09-26T12:06:58Z</time>
      </trkpt>
      <trkpt lat="44.54811" lon="4.65842">
        <ele>142</ele>
        <time>2009-09-26T12:07:04Z</time>
      </trkpt>
      <trkpt lat="44.54825" lon="4.65866">
        <ele>138</ele>
        <time>2009-09-26T12:07:09Z</time>
      </trkpt>
      <trkpt lat="44.54827" lon="4.65871">
        <ele>138</ele>
        <time>2009-09-26T12:07:10Z</time>
      </trkpt>
      <trkpt lat="44.54831" lon="4.65885">
        <ele>137</ele>
        <time>2009-09-26T12:07:12Z</time>
      </trkpt>
      <trkpt lat="44.54843" lon="4.65892">
        <ele>132</ele>
        <time>2009-09-26T12:07:18Z</time>
      </trkpt>
      <trkpt lat="44.54843" lon="4.65889">
        <ele>132</ele>
        <time>2009-09-26T12:07:19Z</time>
      </trkpt>
      <trkpt lat="44.54843" lon="4.6587">
        <ele>129</ele>
        <time>2009-09-26T12:07:23Z</time>
      </trkpt>
      <trkpt lat="44.54842" lon="4.65849">
        <ele>128</ele>
        <time>2009-09-26T12:07:26Z</time>
      </trkpt>
      <trkpt lat="44.54848" lon="4.65832">
        <ele>125</ele>
        <time>2009-09-26T12:07:30Z</time>
      </trkpt>
      <trkpt lat="44.54854" lon="4.65813">
        <ele>123</ele>
        <time>2009-09-26T12:07:41Z</time>
      </trkpt>
      <trkpt lat="44.54857" lon="4.65807">
        <ele>123</ele>
        <time>2009-09-26T12:08:13Z</time>
      </trkpt>
      <trkpt lat="44.54859" lon="4.65806">
        <ele>123</ele>
        <time>2009-09-26T12:08:41Z</time>
      </trkpt>
      <trkpt lat="44.5486" lon="4.65803">
        <ele>124</ele>
        <time>2009-09-26T12:09:04Z</time>
      </trkpt>
      <trkpt lat="44.5486" lon="4.65804">
        <ele>124</ele>
        <time>2009-09-26T12:09:05Z</time>
      </trkpt>
      <trkpt lat="44.54868" lon="4.65836">
        <ele>123</ele>
        <time>2009-09-26T12:09:17Z</time>
      </trkpt>
      <trkpt lat="44.54922" lon="4.65921">
        <ele>122</ele>
        <time>2009-09-26T12:09:25Z</time>
      </trkpt>
      <trkpt lat="44.54916" lon="4.65905">
        <ele>121</ele>
        <time>2009-09-26T12:09:33Z</time>
      </trkpt>
      <trkpt lat="44.54915" lon="4.65934">
        <ele>120</ele>
        <time>2009-09-26T12:09:42Z</time>
      </trkpt>
      <trkpt lat="44.54906" lon="4.65956">
        <ele>121</ele>
        <time>2009-09-26T12:10:15Z</time>
      </trkpt>
      <trkpt lat="44.54907" lon="4.65957">
        <ele>121</ele>
        <time>2009-09-26T12:10:16Z</time>
      </trkpt>
      <trkpt lat="44.54914" lon="4.6597">
        <ele>124</ele>
        <time>2009-09-26T12:10:31Z</time>
      </trkpt>
      <trkpt lat="44.54918" lon="4.65983">
        <ele>125</ele>
        <time>2009-09-26T12:10:42Z</time>
      </trkpt>
      <trkpt lat="44.54917" lon="4.65993">
        <ele>127</ele>
        <time>2009-09-26T12:10:48Z</time>
      </trkpt>
      <trkpt lat="44.54928" lon="4.66009">
        <ele>128</ele>
        <time>2009-09-26T12:11:00Z</time>
      </trkpt>
      <trkpt lat="44.54941" lon="4.66022">
        <ele>132</ele>
        <time>2009-09-26T12:11:15Z</time>
      </trkpt>
      <trkpt lat="44.54947" lon="4.6603">
        <ele>133</ele>
        <time>2009-09-26T12:11:30Z</time>
      </trkpt>
      <trkpt lat="44.54948" lon="4.66037">
        <ele>134</ele>
        <time>2009-09-26T12:11:51Z</time>
      </trkpt>
      <trkpt lat="44.54948" lon="4.66038">
        <ele>134</ele>
        <time>2009-09-26T12:12:22Z</time>
      </trkpt>
      <trkpt lat="44.54946" lon="4.66056">
        <ele>136</ele>
        <time>2009-09-26T12:12:27Z</time>
      </trkpt>
      <trkpt lat="44.54944" lon="4.6608">
        <ele>138</ele>
        <time>2009-09-26T12:12:36Z</time>
      </trkpt>
      <trkpt lat="44.54937" lon="4.6608">
        <ele>138</ele>
        <time>2009-09-26T12:12:39Z</time>
      </trkpt>
      <trkpt lat="44.54885" lon="4.66083">
        <ele>137</ele>
        <time>2009-09-26T12:12:53Z</time>
      </trkpt>
      <trkpt lat="44.54881" lon="4.66088">
        <ele>137</ele>
        <time>2009-09-26T12:12:54Z</time>
      </trkpt>
      <trkpt lat="44.54854" lon="4.66098">
        <ele>137</ele>
        <time>2009-09-26T12:13:00Z</time>
      </trkpt>
      <trkpt lat="44.54765" lon="4.6616">
        <ele>134</ele>
        <time>2009-09-26T12:13:16Z</time>
      </trkpt>
      <trkpt lat="44.54679" lon="4.6622">
        <ele>132</ele>
        <time>2009-09-26T12:13:30Z</time>
      </trkpt>
      <trkpt lat="44.54612" lon="4.66316">
        <ele>129</ele>
        <time>2009-09-26T12:13:42Z</time>
      </trkpt>
      <trkpt lat="44.54596" lon="4.66341">
        <ele>128</ele>
        <time>2009-09-26T12:13:45Z</time>
      </trkpt>
      <trkpt lat="44.54555" lon="4.66407">
        <ele>125</ele>
        <time>2009-09-26T12:13:53Z</time>
      </trkpt>
      <trkpt lat="44.54494" lon="4.66503">
        <ele>122</ele>
        <time>2009-09-26T12:14:05Z</time>
      </trkpt>
      <trkpt lat="44.54459" lon="4.66558">
        <ele>119</ele>
        <time>2009-09-26T12:14:12Z</time>
      </trkpt>
      <trkpt lat="44.54404" lon="4.66649">
        <ele>116</ele>
        <time>2009-09-26T12:14:23Z</time>
      </trkpt>
      <trkpt lat="44.54341" lon="4.66759">
        <ele>115</ele>
        <time>2009-09-26T12:14:37Z</time>
      </trkpt>
      <trkpt lat="44.54318" lon="4.66869">
        <ele>112</ele>
        <time>2009-09-26T12:14:49Z</time>
      </trkpt>
      <trkpt lat="44.54305" lon="4.66945">
        <ele>110</ele>
        <time>2009-09-26T12:14:57Z</time>
      </trkpt>
      <trkpt lat="44.54287" lon="4.67045">
        <ele>108</ele>
        <time>2009-09-26T12:15:08Z</time>
      </trkpt>
      <trkpt lat="44.54284" lon="4.67054">
        <ele>108</ele>
        <time>2009-09-26T12:15:09Z</time>
      </trkpt>
      <trkpt lat="44.54276" lon="4.67179">
        <ele>104</ele>
        <time>2009-09-26T12:15:23Z</time>
      </trkpt>
      <trkpt lat="44.54276" lon="4.67184">
        <ele>104</ele>
        <time>2009-09-26T12:15:24Z</time>
      </trkpt>
      <trkpt lat="44.54276" lon="4.67189">
        <ele>103</ele>
        <time>2009-09-26T12:15:29Z</time>
      </trkpt>
      <trkpt lat="44.54267" lon="4.67182">
        <ele>102</ele>
        <time>2009-09-26T12:15:33Z</time>
      </trkpt>
      <trkpt lat="44.54267" lon="4.67182">
        <ele>102</ele>
        <time>2009-09-26T12:15:34Z</time>
      </trkpt>
      <trkpt lat="44.54251" lon="4.67217">
        <ele>99</ele>
        <time>2009-09-26T12:15:40Z</time>
      </trkpt>
      <trkpt lat="44.54245" lon="4.67244">
        <ele>98</ele>
        <time>2009-09-26T12:15:44Z</time>
      </trkpt>
      <trkpt lat="44.54236" lon="4.67274">
        <ele>96</ele>
        <time>2009-09-26T12:15:47Z</time>
      </trkpt>
      <trkpt lat="44.54233" lon="4.67282">
        <ele>96</ele>
        <time>2009-09-26T12:15:48Z</time>
      </trkpt>
      <trkpt lat="44.54222" lon="4.67335">
        <ele>94</ele>
        <time>2009-09-26T12:15:54Z</time>
      </trkpt>
      <trkpt lat="44.5422" lon="4.67346">
        <ele>94</ele>
        <time>2009-09-26T12:15:55Z</time>
      </trkpt>
      <trkpt lat="44.54198" lon="4.67419">
        <ele>91</ele>
        <time>2009-09-26T12:16:02Z</time>
      </trkpt>
      <trkpt lat="44.54185" lon="4.67455">
        <ele>89</ele>
        <time>2009-09-26T12:16:09Z</time>
      </trkpt>
      <trkpt lat="44.54189" lon="4.67465">
        <ele>89</ele>
        <time>2009-09-26T12:16:11Z</time>
      </trkpt>
      <trkpt lat="44.54215" lon="4.67544">
        <ele>88</ele>
        <time>2009-09-26T12:16:23Z</time>
      </trkpt>
      <trkpt lat="44.54223" lon="4.67579">
        <ele>89</ele>
        <time>2009-09-26T12:16:29Z</time>
      </trkpt>
      <trkpt lat="44.54228" lon="4.67609">
        <ele>88</ele>
        <time>2009-09-26T12:16:33Z</time>
      </trkpt>
      <trkpt lat="44.54235" lon="4.67646">
        <ele>87</ele>
        <time>2009-09-26T12:16:38Z</time>
      </trkpt>
      <trkpt lat="44.54241" lon="4.67782">
        <ele>84</ele>
        <time>2009-09-26T12:16:52Z</time>
      </trkpt>
      <trkpt lat="44.54236" lon="4.67813">
        <ele>83</ele>
        <time>2009-09-26T12:16:56Z</time>
      </trkpt>
      <trkpt lat="44.54219" lon="4.67818">
        <ele>83</ele>
        <time>2009-09-26T12:17:02Z</time>
      </trkpt>
      <trkpt lat="44.54217" lon="4.67812">
        <ele>83</ele>
        <time>2009-09-26T12:17:03Z</time>
      </trkpt>
      <trkpt lat="44.54212" lon="4.678">
        <ele>83</ele>
        <time>2009-09-26T12:17:05Z</time>
      </trkpt>
      <trkpt lat="44.54211" lon="4.67763">
        <ele>84</ele>
        <time>2009-09-26T12:17:12Z</time>
      </trkpt>
      <trkpt lat="44.54167" lon="4.67728">
        <ele>86</ele>
        <time>2009-09-26T12:17:28Z</time>
      </trkpt>
      <trkpt lat="44.54149" lon="4.67716">
        <ele>89</ele>
        <time>2009-09-26T12:17:40Z</time>
      </trkpt>
      <trkpt lat="44.54138" lon="4.67695">
        <ele>91</ele>
        <time>2009-09-26T12:17:56Z</time>
      </trkpt>
      <trkpt lat="44.54137" lon="4.67692">
        <ele>92</ele>
        <time>2009-09-26T12:18:00Z</time>
      </trkpt>
      <trkpt lat="44.54137" lon="4.67692">
        <ele>92</ele>
        <time>2009-09-26T12:18:19Z</time>
      </trkpt>
      <trkpt lat="44.54137" lon="4.67692">
        <ele>91</ele>
        <time>2009-09-26T12:20:40Z</time>
      </trkpt>
      <trkpt lat="44.54149" lon="4.67679">
        <ele>91</ele>
        <time>2009-09-26T12:21:00Z</time>
      </trkpt>
      <trkpt lat="44.54147" lon="4.67676">
        <ele>90</ele>
        <time>2009-09-26T12:21:26Z</time>
      </trkpt>
    </trkseg>
  </trk>
</gpx>